Observation data for Claude 12 Southwest on 05/25/2019      Previous  Date  Next       Current Mesonet Observations  Soil Data  Daily Summary Page  Observations in Plain Language
KCL1 250500Z 16007KT 17/15 A2997 RMK A01 T01660153  RH  092%=      5-min Rain = 0
KCL1 250501Z 16008KT 17/15 A2997 RMK A01 T01670154  RH  092%=      5-min Rain = 0
KCL1 250502Z 16007KT 17/16 A2997 RMK A01 T01690155  RH  092%=      5-min Rain = 0
KCL1 250503Z 16006KT 17/16 A2997 RMK A01 T01710155  RH  091%=      5-min Rain = 0
KCL1 250504Z 16007KT 17/16 A2997 RMK A01 T01720155  RH  090%=      5-min Rain = 0
KCL1 250505Z 17006KT 17/16 A2997 RMK A01 T01730155  RH  089%=      5-min Rain = 0
KCL1 250506Z 17009KT 17/16 A2998 RMK A01 T01740155  RH  089%=      5-min Rain = 0
KCL1 250507Z 16008KT 17/16 A2998 RMK A01 T01740155  RH  089%=      5-min Rain = 0
KCL1 250508Z 16008KT 17/16 A2998 RMK A01 T01740155  RH  089%=      5-min Rain = 0
KCL1 250509Z 16007KT 17/16 A2998 RMK A01 T01740155  RH  089%=      5-min Rain = 0
KCL1 250510Z 16009KT 17/16 A2998 RMK A01 T01740155  RH  089%=      5-min Rain = 0
KCL1 250511Z 16009KT 17/16 A2998 RMK A01 T01740155  RH  089%=      5-min Rain = 0
KCL1 250512Z 15010KT 17/16 A2998 RMK A01 T01740156  RH  089%=      5-min Rain = 0
KCL1 250513Z 15009KT 17/16 A2998 RMK A01 T01740156  RH  089%=      5-min Rain = 0
KCL1 250514Z 16008KT 17/16 A2998 RMK A01 T01740156  RH  089%=      5-min Rain = 0
KCL1 250515Z 16008KT 17/16 A2998 RMK A01 T01740156  RH  089%=      5-min Rain = 0
KCL1 250516Z 16008KT 17/16 A2998 RMK A01 T01740157  RH  090%=      5-min Rain = 0
KCL1 250517Z 16007KT 17/16 A2998 RMK A01 T01740157  RH  090%=      5-min Rain = 0
KCL1 250518Z 16008KT 17/16 A2998 RMK A01 T01740158  RH  090%=      5-min Rain = 0
KCL1 250519Z 16007KT 17/16 A2998 RMK A01 T01740158  RH  090%=      5-min Rain = 0
KCL1 250520Z 16008KT 17/16 A2998 RMK A01 T01740158  RH  090%=      5-min Rain = 0
KCL1 250521Z 16010KT 17/16 A2998 RMK A01 T01740159  RH  091%=      5-min Rain = 0
KCL1 250522Z 16009KT 17/16 A2998 RMK A01 T01740159  RH  091%=      5-min Rain = 0
KCL1 250523Z 16008KT 17/16 A2998 RMK A01 T01740158  RH  090%=      5-min Rain = 0
KCL1 250524Z 15008KT 17/16 A2998 RMK A01 T01740159  RH  091%=      5-min Rain = 0
KCL1 250525Z 15009KT 17/16 A2998 RMK A01 T01730159  RH  092%=      5-min Rain = 0
KCL1 250526Z 16010KT 17/16 A2998 RMK A01 T01730160  RH  092%=      5-min Rain = 0
KCL1 250527Z 15011KT 17/16 A2998 RMK A01 T01720159  RH  092%=      5-min Rain = 0
KCL1 250528Z 15009KT 17/16 A2998 RMK A01 T01730159  RH  092%=      5-min Rain = 0
KCL1 250529Z 15009KT 17/16 A2998 RMK A01 T01730159  RH  092%=      5-min Rain = 0
KCL1 250530Z 16009KT 17/16 A2998 RMK A01 T01730160  RH  092%=      5-min Rain = 0
KCL1 250531Z 15008KT 17/16 A2998 RMK A01 T01730159  RH  092%=      5-min Rain = 0
KCL1 250532Z 15009KT 17/16 A2998 RMK A01 T01730159  RH  092%=      5-min Rain = 0
KCL1 250533Z 15008KT 17/16 A2998 RMK A01 T01730160  RH  092%=      5-min Rain = 0
KCL1 250534Z 15007KT 17/16 A2998 RMK A01 T01720159  RH  092%=      5-min Rain = 0
KCL1 250535Z 14008KT 17/16 A2998 RMK A01 T01710159  RH  093%=      5-min Rain = 0
KCL1 250536Z 15009KT 17/16 A2998 RMK A01 T01710159  RH  093%=      5-min Rain = 0
KCL1 250537Z 15009KT 17/16 A2998 RMK A01 T01700159  RH  093%=      5-min Rain = 0
KCL1 250538Z 15009KT 17/16 A2998 RMK A01 T01700159  RH  093%=      5-min Rain = 0
KCL1 250539Z 15010KT 17/16 A2998 RMK A01 T01700159  RH  093%=      5-min Rain = 0
KCL1 250540Z 15009KT 17/16 A2998 RMK A01 T01700158  RH  092%=      5-min Rain = 0
KCL1 250541Z 15010KT 17/16 A2998 RMK A01 T01700157  RH  092%=      5-min Rain = 0
KCL1 250542Z 15009KT 17/16 A2998 RMK A01 T01700157  RH  092%=      5-min Rain = 0
KCL1 250543Z 15009KT 17/16 A2998 RMK A01 T01700156  RH  092%=      5-min Rain = 0
KCL1 250544Z 15010KT 17/16 A2998 RMK A01 T01700156  RH  092%=      5-min Rain = 0
KCL1 250545Z 15009KT 17/16 A2998 RMK A01 T01700156  RH  092%=      5-min Rain = 0
KCL1 250546Z 15009KT 17/16 A2998 RMK A01 T01700155  RH  091%=      5-min Rain = 0
KCL1 250547Z 15009KT 17/16 A2998 RMK A01 T01690155  RH  091%=      5-min Rain = 0
KCL1 250548Z 15009KT 17/16 A2998 RMK A01 T01700155  RH  091%=      5-min Rain = 0
KCL1 250549Z 15009KT 17/16 A2998 RMK A01 T01700155  RH  091%=      5-min Rain = 0
KCL1 250550Z 15007KT 17/16 A2999 RMK A01 T01690155  RH  091%=      5-min Rain = 0
KCL1 250551Z 15007KT 17/16 A2999 RMK A01 T01700155  RH  091%=      5-min Rain = 0
KCL1 250552Z 14008KT 17/16 A2998 RMK A01 T01700155  RH  091%=      5-min Rain = 0
KCL1 250553Z 14009KT 17/16 A2998 RMK A01 T01690155  RH  091%=      5-min Rain = 0
KCL1 250554Z 15010KT 17/16 A2999 RMK A01 T01700155  RH  091%=      5-min Rain = 0
KCL1 250555Z 15010KT 17/16 A2999 RMK A01 T01700155  RH  091%=      5-min Rain = 0
KCL1 250556Z 15009KT 17/16 A2999 RMK A01 T01710155  RH  090%=      5-min Rain = 0
KCL1 250557Z 15009KT 17/15 A2999 RMK A01 T01710154  RH  090%=      5-min Rain = 0
KCL1 250558Z 15008KT 17/15 A2999 RMK A01 T01710154  RH  090%=      5-min Rain = 0
KCL1 250559Z 15008KT 17/15 A2999 RMK A01 T01710154  RH  089%=      5-min Rain = 0
KCL1 250600Z 14008KT 17/15 A2999 RMK A01 T01710153  RH  089%=      5-min Rain = 0
KCL1 250601Z 15009KT 17/15 A2998 RMK A01 T01710153  RH  089%=      5-min Rain = 0
KCL1 250602Z 15010KT 17/15 A2998 RMK A01 T01710152  RH  088%=      5-min Rain = 0
KCL1 250603Z 15008KT 17/15 A2999 RMK A01 T01720152  RH  088%=      5-min Rain = 0
KCL1 250604Z 15008KT 17/15 A2999 RMK A01 T01720152  RH  088%=      5-min Rain = 0
KCL1 250605Z 16008KT 17/15 A2999 RMK A01 T01720151  RH  088%=      5-min Rain = 0
KCL1 250606Z 15007KT 17/15 A2998 RMK A01 T01720151  RH  087%=      5-min Rain = 0
KCL1 250607Z 15008KT 17/15 A2998 RMK A01 T01720151  RH  087%=      5-min Rain = 0
KCL1 250608Z 15008KT 17/15 A2998 RMK A01 T01720151  RH  087%=      5-min Rain = 0
KCL1 250609Z 16008KT 17/15 A2998 RMK A01 T01720151  RH  087%=      5-min Rain = 0
KCL1 250610Z 15009KT 17/15 A2998 RMK A01 T01720152  RH  088%=      5-min Rain = 0
KCL1 250611Z 16008KT 17/15 A2998 RMK A01 T01730152  RH  088%=      5-min Rain = 0
KCL1 250612Z 16008KT 17/15 A2998 RMK A01 T01730152  RH  087%=      5-min Rain = 0
KCL1 250613Z 15007KT 17/15 A2998 RMK A01 T01730152  RH  088%=      5-min Rain = 0
KCL1 250614Z 15008KT 17/15 A2998 RMK A01 T01730153  RH  088%=      5-min Rain = 0
KCL1 250615Z 15007KT 17/15 A2998 RMK A01 T01730153  RH  088%=      5-min Rain = 0
KCL1 250616Z 15007KT 17/15 A2998 RMK A01 T01730153  RH  088%=      5-min Rain = 0
KCL1 250617Z 15007KT 17/15 A2998 RMK A01 T01730154  RH  088%=      5-min Rain = 0
KCL1 250618Z 16007KT 17/15 A2998 RMK A01 T01720154  RH  089%=      5-min Rain = 0
KCL1 250619Z 15007KT 17/15 A2998 RMK A01 T01720154  RH  089%=      5-min Rain = 0
KCL1 250620Z 15007KT 17/15 A2998 RMK A01 T01720154  RH  089%=      5-min Rain = 0
KCL1 250621Z 15007KT 17/15 A2998 RMK A01 T01720154  RH  089%=      5-min Rain = 0
KCL1 250622Z 15008KT 17/15 A2998 RMK A01 T01720154  RH  089%=      5-min Rain = 0
KCL1 250623Z 15007KT 17/15 A2998 RMK A01 T01720154  RH  089%=      5-min Rain = 0
KCL1 250624Z 15007KT 17/15 A2998 RMK A01 T01720154  RH  089%=      5-min Rain = 0
KCL1 250625Z 15007KT 17/15 A2998 RMK A01 T01720154  RH  089%=      5-min Rain = 0
KCL1 250626Z 15007KT 17/15 A2998 RMK A01 T01720154  RH  089%=      5-min Rain = 0
KCL1 250627Z 15007KT 17/15 A2998 RMK A01 T01720154  RH  089%=      5-min Rain = 0
KCL1 250628Z 15007KT 17/15 A2998 RMK A01 T01730154  RH  089%=      5-min Rain = 0
KCL1 250629Z 15007KT 17/16 A2998 RMK A01 T01730155  RH  089%=      5-min Rain = 0
KCL1 250630Z 15008KT 17/16 A2998 RMK A01 T01730156  RH  089%=      5-min Rain = 0
KCL1 250631Z 15007KT 17/16 A2998 RMK A01 T01740156  RH  089%=      5-min Rain = 0
KCL1 250632Z 15007KT 18/16 A2998 RMK A01 T01750157  RH  089%=      5-min Rain = 0
KCL1 250633Z 15008KT 18/16 A2998 RMK A01 T01750157  RH  089%=      5-min Rain = 0
KCL1 250634Z 15007KT 18/16 A2998 RMK A01 T01760157  RH  089%=      5-min Rain = 0
KCL1 250635Z 15007KT 18/16 A2998 RMK A01 T01760157  RH  088%=      5-min Rain = 0
KCL1 250636Z 15007KT 18/16 A2998 RMK A01 T01770157  RH  088%=      5-min Rain = 0
KCL1 250637Z 15008KT 18/16 A2998 RMK A01 T01770158  RH  088%=      5-min Rain = 0
KCL1 250638Z 15008KT 18/16 A2998 RMK A01 T01770158  RH  088%=      5-min Rain = 0
KCL1 250639Z 15007KT 18/16 A2998 RMK A01 T01780158  RH  089%=      5-min Rain = 0
KCL1 250640Z 15008KT 18/16 A2998 RMK A01 T01780158  RH  088%=      5-min Rain = 0
KCL1 250641Z 15007KT 18/16 A2998 RMK A01 T01780158  RH  088%=      5-min Rain = 0
KCL1 250642Z 15008KT 18/16 A2998 RMK A01 T01780159  RH  088%=      5-min Rain = 0
KCL1 250643Z 14008KT 18/16 A2998 RMK A01 T01780158  RH  088%=      5-min Rain = 0
KCL1 250644Z 14007KT 18/16 A2998 RMK A01 T01790159  RH  088%=      5-min Rain = 0
KCL1 250645Z 14007KT 18/16 A2998 RMK A01 T01790159  RH  088%=      5-min Rain = 0
KCL1 250646Z 14007KT 18/16 A2998 RMK A01 T01790159  RH  088%=      5-min Rain = 0
KCL1 250647Z 15008KT 18/16 A2998 RMK A01 T01780159  RH  088%=      5-min Rain = 0
KCL1 250648Z 14007KT 18/16 A2998 RMK A01 T01780159  RH  089%=      5-min Rain = 0
KCL1 250649Z 15007KT 18/16 A2998 RMK A01 T01780159  RH  089%=      5-min Rain = 0
KCL1 250650Z 15006KT 18/16 A2998 RMK A01 T01780159  RH  089%=      5-min Rain = 0
KCL1 250651Z 15007KT 18/16 A2998 RMK A01 T01780160  RH  089%=      5-min Rain = 0
KCL1 250652Z 15007KT 18/16 A2998 RMK A01 T01780160  RH  089%=      5-min Rain = 0
KCL1 250653Z 15007KT 18/16 A2998 RMK A01 T01780160  RH  089%=      5-min Rain = 0
KCL1 250654Z 14008KT 18/16 A2998 RMK A01 T01780161  RH  090%=      5-min Rain = 0
KCL1 250655Z 14008KT 18/16 A2998 RMK A01 T01780161  RH  090%=      5-min Rain = 0
KCL1 250656Z 14008KT 18/16 A2998 RMK A01 T01780162  RH  090%=      5-min Rain = 0
KCL1 250657Z 14008KT 18/16 A2998 RMK A01 T01780163  RH  091%=      5-min Rain = 0
KCL1 250658Z 15007KT 18/16 A2998 RMK A01 T01780163  RH  091%=      5-min Rain = 0
KCL1 250659Z 15009KT 18/16 A2998 RMK A01 T01780163  RH  091%=      5-min Rain = 0
KCL1 250700Z 15007KT 18/16 A2998 RMK A01 T01780163  RH  091%=      5-min Rain = 0
KCL1 250701Z 15008KT 18/16 A2998 RMK A01 T01780164  RH  091%=      5-min Rain = 0
KCL1 250702Z 15007KT 18/17 A2998 RMK A01 T01780165  RH  092%=      5-min Rain = 0
KCL1 250703Z 15008KT 18/17 A2998 RMK A01 T01770165  RH  093%=      5-min Rain = 0
KCL1 250704Z 15008KT 18/17 A2998 RMK A01 T01770166  RH  093%=      5-min Rain = 0
KCL1 250705Z 16009KT 18/17 A2998 RMK A01 T01770167  RH  094%=      5-min Rain = 0
KCL1 250706Z 15009KT 18/17 A2997 RMK A01 T01770168  RH  095%=      5-min Rain = 0
KCL1 250707Z 15011KT 18/17 A2997 RMK A01 T01770170  RH  096%=      5-min Rain = 0
KCL1 250708Z 14010KT 18/17 A2997 RMK A01 T01770172  RH  097%=      5-min Rain = 0
KCL1 250709Z 15011KT 18/17 A2997 RMK A01 T01780172  RH  097%=      5-min Rain = 0
KCL1 250710Z 15011KT 18/17 A2997 RMK A01 T01780173  RH  097%=      5-min Rain = 0
KCL1 250711Z 15011KT 18/17 A2997 RMK A01 T01790174  RH  097%=      5-min Rain = 0
KCL1 250712Z 15010KT 18/17 A2998 RMK A01 T01790174  RH  097%=      5-min Rain = 0
KCL1 250713Z 15009KT 18/18 A2998 RMK A01 T01790175  RH  097%=      5-min Rain = 0
KCL1 250714Z 15009KT 18/18 A2998 RMK A01 T01790176  RH  098%=      5-min Rain = 0
KCL1 250715Z 15009KT 18/18 A2998 RMK A01 T01800177  RH  098%=      5-min Rain = 0
KCL1 250716Z 15010KT 18/18 A2998 RMK A01 T01800178  RH  099%=      5-min Rain = 0
KCL1 250717Z 15010KT 18/18 A2997 RMK A01 T01800179  RH  099%=      5-min Rain = 0
KCL1 250718Z 15010KT 18/18 A2997 RMK A01 T01800179  RH  099%=      5-min Rain = 0
KCL1 250719Z 14010KT 18/18 A2998 RMK A01 T01810180  RH  100%=      5-min Rain = 0
KCL1 250720Z 15010KT 18/18 A2998 RMK A01 T01800180  RH  099%=      5-min Rain = 0
KCL1 250721Z 15010KT 18/18 A2998 RMK A01 T01810180  RH  100%=      5-min Rain = 0
KCL1 250722Z 15011KT 18/18 A2997 RMK A01 T01800180  RH  100%=      5-min Rain = 0
KCL1 250723Z 14010KT 18/18 A2997 RMK A01 T01800180  RH  100%=      5-min Rain = 0
KCL1 250724Z 15010KT 18/18 A2997 RMK A01 T01800180  RH  100%=      5-min Rain = 0
KCL1 250725Z 15011KT 18/18 A2997 RMK A01 T01800180  RH  100%=      5-min Rain = 0
KCL1 250726Z 14012KT 18/18 A2997 RMK A01 T01790180  RH  100%=      5-min Rain = 0
KCL1 250727Z 14011KT 18/18 A2997 RMK A01 T01800180  RH  100%=      5-min Rain = 0
KCL1 250728Z 15010KT 18/18 A2997 RMK A01 T01800180  RH  100%=      5-min Rain = 0
KCL1 250729Z 15011KT 18/18 A2997 RMK A01 T01790180  RH  100%=      5-min Rain = 0
KCL1 250730Z 15010KT 18/18 A2997 RMK A01 T01800180  RH  100%=      5-min Rain = 0
KCL1 250731Z 15011KT 18/18 A2997 RMK A01 T01790180  RH  100%=      5-min Rain = 0
KCL1 250732Z 15009KT 18/18 A2997 RMK A01 T01800180  RH  100%=      5-min Rain = 0
KCL1 250733Z 15010KT 18/18 A2998 RMK A01 T01800180  RH  100%=      5-min Rain = 0
KCL1 250734Z 15010KT 18/18 A2998 RMK A01 T01800180  RH  100%=      5-min Rain = 0
KCL1 250735Z 15010KT 18/18 A2998 RMK A01 T01800180  RH  100%=      5-min Rain = 0
KCL1 250736Z 15010KT 18/18 A2998 RMK A01 T01800180  RH  100%=      5-min Rain = 0
KCL1 250737Z 14011KT 18/18 A2998 RMK A01 T01800180  RH  100%=      5-min Rain = 0
KCL1 250738Z 14011KT 18/18 A2998 RMK A01 T01800180  RH  100%=      5-min Rain = 0
KCL1 250739Z 14012KT 18/18 A2998 RMK A01 T01800180  RH  100%=      5-min Rain = 0
KCL1 250740Z 15011KT 18/18 A2998 RMK A01 T01800180  RH  100%=      5-min Rain = 0
KCL1 250741Z 15011KT 18/18 A2998 RMK A01 T01810181  RH  100%=      5-min Rain = 0
KCL1 250742Z 15010KT 18/18 A2998 RMK A01 T01800180  RH  100%=      5-min Rain = 0
KCL1 250743Z 15011KT 18/18 A2998 RMK A01 T01800180  RH  100%=      5-min Rain = 0
KCL1 250744Z 15010KT 18/18 A2998 RMK A01 T01800180  RH  100%=      5-min Rain = 0
KCL1 250745Z 15011KT 18/18 A2998 RMK A01 T01800180  RH  100%=      5-min Rain = 0
KCL1 250746Z 15011KT 18/18 A2998 RMK A01 T01790180  RH  100%=      5-min Rain = 0
KCL1 250747Z 15009KT 18/18 A2998 RMK A01 T01800180  RH  100%=      5-min Rain = 0
KCL1 250748Z 15011KT 18/18 A2997 RMK A01 T01800180  RH  100%=      5-min Rain = 0
KCL1 250749Z 15013KT 18/18 A2997 RMK A01 T01790180  RH  100%=      5-min Rain = 0
KCL1 250750Z 15013KT 18/18 A2997 RMK A01 T01800180  RH  100%=      5-min Rain = 0
KCL1 250751Z 15013KT 18/18 A2997 RMK A01 T01800180  RH  100%=      5-min Rain = 0
KCL1 250752Z 14012G17KT 18/18 A2997 RMK A01 T01800180  RH  100%=      5-min Rain = 0
KCL1 250753Z 14011KT 18/18 A2997 RMK A01 T01800180  RH  100%=      5-min Rain = 0
KCL1 250754Z 15011KT 18/18 A2997 RMK A01 T01800180  RH  100%=      5-min Rain = 0
KCL1 250755Z 14011KT 18/18 A2997 RMK A01 T01800180  RH  100%=      5-min Rain = 0
KCL1 250756Z 14010KT 18/18 A2997 RMK A01 T01800180  RH  100%=      5-min Rain = 0
KCL1 250757Z 15011KT 18/18 A2997 RMK A01 T01800180  RH  100%=      5-min Rain = 0
KCL1 250758Z 15012KT 18/18 A2997 RMK A01 T01800180  RH  100%=      5-min Rain = 0
KCL1 250759Z 14009KT 18/18 A2997 RMK A01 T01800180  RH  100%=      5-min Rain = 0
KCL1 250800Z 15009KT 18/18 A2997 RMK A01 T01800180  RH  100%=      5-min Rain = 0
KCL1 250801Z 15011KT 18/18 A2997 RMK A01 T01800180  RH  100%=      5-min Rain = 0
KCL1 250802Z 15011KT 18/18 A2997 RMK A01 T01800180  RH  100%=      5-min Rain = 0
KCL1 250803Z 14009KT 18/18 A2997 RMK A01 T01800180  RH  100%=      5-min Rain = 0
KCL1 250804Z 15010KT 18/18 A2997 RMK A01 T01800180  RH  100%=      5-min Rain = 0
KCL1 250805Z 14009KT 18/18 A2997 RMK A01 T01800180  RH  100%=      5-min Rain = 0
KCL1 250806Z 15011KT 18/18 A2997 RMK A01 T01800180  RH  100%=      5-min Rain = 0
KCL1 250807Z 15012KT 18/18 A2997 RMK A01 T01790180  RH  100%=      5-min Rain = 0
KCL1 250808Z 14011KT 18/18 A2998 RMK A01 T01800180  RH  100%=      5-min Rain = 0
KCL1 250809Z 14013KT 18/18 A2998 RMK A01 T01800180  RH  100%=      5-min Rain = 0
KCL1 250810Z 15012KT 18/18 A2997 RMK A01 T01800180  RH  100%=      5-min Rain = 0
KCL1 250811Z 14013KT 18/18 A2998 RMK A01 T01800180  RH  100%=      5-min Rain = 0
KCL1 250812Z 14011KT 18/18 A2998 RMK A01 T01790180  RH  100%=      5-min Rain = 0
KCL1 250813Z 15012KT 18/18 A2998 RMK A01 T01800180  RH  100%=      5-min Rain = 0
KCL1 250814Z 15012KT 18/18 A2997 RMK A01 T01800180  RH  100%=      5-min Rain = 0
KCL1 250815Z 15011KT 18/18 A2998 RMK A01 T01800180  RH  100%=      5-min Rain = 0
KCL1 250816Z 15012KT 18/18 A2997 RMK A01 T01800180  RH  100%=      5-min Rain = 0
KCL1 250817Z 14011KT 18/18 A2997 RMK A01 T01800180  RH  100%=      5-min Rain = 0
KCL1 250818Z 15009KT 18/18 A2997 RMK A01 T01800180  RH  100%=      5-min Rain = 0
KCL1 250819Z 15012KT 18/18 A2997 RMK A01 T01800180  RH  100%=      5-min Rain = 0
KCL1 250820Z 15010KT 18/18 A2997 RMK A01 T01800180  RH  100%=      5-min Rain = 0
KCL1 250821Z 14012G18KT 18/18 A2997 RMK A01 T01800180  RH  100%=      5-min Rain = 0
KCL1 250822Z 15010KT 18/18 A2997 RMK A01 T01800180  RH  100%=      5-min Rain = 0
KCL1 250823Z 15010KT 18/18 A2997 RMK A01 T01800180  RH  100%=      5-min Rain = 0
KCL1 250824Z 14011KT 18/18 A2997 RMK A01 T01800180  RH  100%=      5-min Rain = 0
KCL1 250825Z 15011KT 18/18 A2997 RMK A01 T01800180  RH  100%=      5-min Rain = 0
KCL1 250826Z 14012KT 18/18 A2997 RMK A01 T01800180  RH  100%=      5-min Rain = 0
KCL1 250827Z 15010KT 18/18 A2997 RMK A01 T01800180  RH  100%=      5-min Rain = 0
KCL1 250828Z 14009KT 18/18 A2998 RMK A01 T01800180  RH  100%=      5-min Rain = 0
KCL1 250829Z 14011KT 18/18 A2997 RMK A01 T01800180  RH  100%=      5-min Rain = 0
KCL1 250830Z 15011KT 18/18 A2997 RMK A01 T01790180  RH  100%=      5-min Rain = 0
KCL1 250831Z 15012KT 18/18 A2997 RMK A01 T01800180  RH  100%=      5-min Rain = 0
KCL1 250832Z 14012KT 18/18 A2997 RMK A01 T01790180  RH  100%=      5-min Rain = 0
KCL1 250833Z 14010KT 18/18 A2997 RMK A01 T01800180  RH  100%=      5-min Rain = 0
KCL1 250834Z 14014KT 18/18 A2997 RMK A01 T01800180  RH  100%=      5-min Rain = 0
KCL1 250835Z 15012KT 18/18 A2998 RMK A01 T01790180  RH  100%=      5-min Rain = 0
KCL1 250836Z 15009KT 18/18 A2998 RMK A01 T01800180  RH  100%=      5-min Rain = 0
KCL1 250837Z 15008KT 18/18 A2998 RMK A01 T01800180  RH  100%=      5-min Rain = 0
KCL1 250838Z 15008KT 18/18 A2998 RMK A01 T01800180  RH  100%=      5-min Rain = 0
KCL1 250839Z 14011KT 18/18 A2998 RMK A01 T01790180  RH  100%=      5-min Rain = 0
KCL1 250840Z 14013KT 18/18 A2997 RMK A01 T01790179  RH  100%=      5-min Rain = 0
KCL1 250841Z 14012KT 18/18 A2997 RMK A01 T01790179  RH  100%=      5-min Rain = 0
KCL1 250842Z 14014KT 18/18 A2997 RMK A01 T01790179  RH  100%=      5-min Rain = 0
KCL1 250843Z 14012KT 18/18 A2997 RMK A01 T01790179  RH  100%=      5-min Rain = 0
KCL1 250844Z 15011KT 18/18 A2997 RMK A01 T01790179  RH  100%=      5-min Rain = 0
KCL1 250845Z 14011KT 18/18 A2997 RMK A01 T01790179  RH  100%=      5-min Rain = 0
KCL1 250846Z 14013KT 18/18 A2997 RMK A01 T01790179  RH  100%=      5-min Rain = 0
KCL1 250847Z 14013KT 18/18 A2997 RMK A01 T01780179  RH  100%=      5-min Rain = 0
KCL1 250848Z 14012KT 18/18 A2997 RMK A01 T01780179  RH  100%=      5-min Rain = 0
KCL1 250849Z 14013KT 18/18 A2997 RMK A01 T01780179  RH  100%=      5-min Rain = 0
KCL1 250850Z 15014KT 18/18 A2997 RMK A01 T01780178  RH  100%=      5-min Rain = 0
KCL1 250851Z 15012KT 18/18 A2997 RMK A01 T01780178  RH  100%=      5-min Rain = 0
KCL1 250852Z 14012KT 18/18 A2997 RMK A01 T01780178  RH  100%=      5-min Rain = 0
KCL1 250853Z 15011KT 18/18 A2997 RMK A01 T01780178  RH  100%=      5-min Rain = 0
KCL1 250854Z 15012KT 18/18 A2997 RMK A01 T01780178  RH  100%=      5-min Rain = 0
KCL1 250855Z 14008KT 18/18 A2997 RMK A01 T01780178  RH  100%=      5-min Rain = 0
KCL1 250856Z 14008KT 18/18 A2997 RMK A01 T01780178  RH  100%=      5-min Rain = 0
KCL1 250857Z 14011KT 18/18 A2997 RMK A01 T01780178  RH  100%=      5-min Rain = 0
KCL1 250858Z 14013KT 18/18 A2997 RMK A01 T01780178  RH  100%=      5-min Rain = 0
KCL1 250859Z 14011KT 18/18 A2997 RMK A01 T01770177  RH  100%=      5-min Rain = 0
KCL1 250900Z 14011KT 18/18 A2997 RMK A01 T01770177  RH  100%=      5-min Rain = 0
KCL1 250901Z 14012KT 18/18 A2997 RMK A01 T01770177  RH  100%=      5-min Rain = 0
KCL1 250902Z 15011KT 18/18 A2997 RMK A01 T01770177  RH  100%=      5-min Rain = 0
KCL1 250903Z 15012KT 18/18 A2997 RMK A01 T01770177  RH  100%=      5-min Rain = 0
KCL1 250904Z 14012KT 18/18 A2997 RMK A01 T01770177  RH  100%=      5-min Rain = 0
KCL1 250905Z 15012KT 18/18 A2997 RMK A01 T01770177  RH  100%=      5-min Rain = 0
KCL1 250906Z 14012KT 18/18 A2997 RMK A01 T01770177  RH  100%=      5-min Rain = 0
KCL1 250907Z 14014KT 18/18 A2997 RMK A01 T01760177  RH  100%=      5-min Rain = 0
KCL1 250908Z 14013KT 18/18 A2997 RMK A01 T01760177  RH  100%=      5-min Rain = 0
KCL1 250909Z 14011KT 18/18 A2997 RMK A01 T01760177  RH  100%=      5-min Rain = 0
KCL1 250910Z 14014KT 18/18 A2997 RMK A01 T01760176  RH  100%=      5-min Rain = 0
KCL1 250911Z 14012KT 18/18 A2997 RMK A01 T01760176  RH  100%=      5-min Rain = 0
KCL1 250912Z 14011KT 18/18 A2997 RMK A01 T01760176  RH  100%=      5-min Rain = 0
KCL1 250913Z 14010KT 18/18 A2997 RMK A01 T01760176  RH  100%=      5-min Rain = 0
KCL1 250914Z 13010KT 18/18 A2997 RMK A01 T01760176  RH  100%=      5-min Rain = 0
KCL1 250915Z 14012KT 18/18 A2997 RMK A01 T01760176  RH  100%=      5-min Rain = 0
KCL1 250916Z 14014KT 18/18 A2997 RMK A01 T01760176  RH  100%=      5-min Rain = 0
KCL1 250917Z 14012KT 18/18 A2997 RMK A01 T01760176  RH  100%=      5-min Rain = 0
KCL1 250918Z 14013KT 18/18 A2997 RMK A01 T01760176  RH  100%=      5-min Rain = 0
KCL1 250919Z 13013KT 18/18 A2997 RMK A01 T01750176  RH  100%=      5-min Rain = 0
KCL1 250920Z 14013KT 18/18 A2997 RMK A01 T01750175  RH  100%=      5-min Rain = 0
KCL1 250921Z 14010KT 18/18 A2997 RMK A01 T01750175  RH  100%=      5-min Rain = 0
KCL1 250922Z 14009KT 18/18 A2997 RMK A01 T01750175  RH  100%=      5-min Rain = 0
KCL1 250923Z 14010KT 18/18 A2997 RMK A01 T01750175  RH  100%=      5-min Rain = 0
KCL1 250924Z 15012KT 18/18 A2997 RMK A01 T01750175  RH  100%=      5-min Rain = 0
KCL1 250925Z 15012KT 18/18 A2997 RMK A01 T01750175  RH  100%=      5-min Rain = 0
KCL1 250926Z 14014KT 18/18 A2997 RMK A01 T01750175  RH  100%=      5-min Rain = 0
KCL1 250927Z 15011KT 18/18 A2997 RMK A01 T01750175  RH  100%=      5-min Rain = 0
KCL1 250928Z 14011KT 18/18 A2997 RMK A01 T01750175  RH  100%=      5-min Rain = 0
KCL1 250929Z 14011KT 18/18 A2997 RMK A01 T01750175  RH  100%=      5-min Rain = 0
KCL1 250930Z 14012KT 17/18 A2997 RMK A01 T01740175  RH  100%=      5-min Rain = 0
KCL1 250931Z 15012KT 18/18 A2997 RMK A01 T01750175  RH  100%=      5-min Rain = 0
KCL1 250932Z 14014KT 18/18 A2997 RMK A01 T01750175  RH  100%=      5-min Rain = 0
KCL1 250933Z 14013KT 18/18 A2997 RMK A01 T01750175  RH  100%=      5-min Rain = 0
KCL1 250934Z 14014KT 17/17 A2997 RMK A01 T01740174  RH  100%=      5-min Rain = 0
KCL1 250935Z 14012KT 17/17 A2997 RMK A01 T01740174  RH  100%=      5-min Rain = 0
KCL1 250936Z 14013KT 17/17 A2997 RMK A01 T01740174  RH  100%=      5-min Rain = 0
KCL1 250937Z 14013KT 17/17 A2997 RMK A01 T01740174  RH  100%=      5-min Rain = 0
KCL1 250938Z 14011KT 17/17 A2997 RMK A01 T01740174  RH  100%=      5-min Rain = 0
KCL1 250939Z 15010KT 17/17 A2997 RMK A01 T01740174  RH  100%=      5-min Rain = 0
KCL1 250940Z 15009KT 17/17 A2997 RMK A01 T01740174  RH  100%=      5-min Rain = 0
KCL1 250941Z 14011KT 17/17 A2997 RMK A01 T01740174  RH  100%=      5-min Rain = 0
KCL1 250942Z 14013KT 17/17 A2997 RMK A01 T01730174  RH  100%=      5-min Rain = 0
KCL1 250943Z 14011KT 17/17 A2997 RMK A01 T01740174  RH  100%=      5-min Rain = 0
KCL1 250944Z 14011KT 17/17 A2997 RMK A01 T01730174  RH  100%=      5-min Rain = 0
KCL1 250945Z 14010KT 17/17 A2997 RMK A01 T01740174  RH  100%=      5-min Rain = 0
KCL1 250946Z 14012KT 17/17 A2997 RMK A01 T01730173  RH  100%=      5-min Rain = 0
KCL1 250947Z 14011KT 17/17 A2997 RMK A01 T01730173  RH  100%=      5-min Rain = 0
KCL1 250948Z 14009KT 17/17 A2997 RMK A01 T01730173  RH  100%=      5-min Rain = 0
KCL1 250949Z 15010KT 17/17 A2997 RMK A01 T01730173  RH  100%=      5-min Rain = 0
KCL1 250950Z 14012KT 17/17 A2997 RMK A01 T01730173  RH  100%=      5-min Rain = 0
KCL1 250951Z 14011KT 17/17 A2997 RMK A01 T01730173  RH  100%=      5-min Rain = 0
KCL1 250952Z 15012KT 17/17 A2997 RMK A01 T01730173  RH  100%=      5-min Rain = 0
KCL1 250953Z 14011KT 17/17 A2997 RMK A01 T01730173  RH  100%=      5-min Rain = 0
KCL1 250954Z 14010KT 17/17 A2997 RMK A01 T01730173  RH  100%=      5-min Rain = 0
KCL1 250955Z 14011KT 17/17 A2997 RMK A01 T01730173  RH  100%=      5-min Rain = 0
KCL1 250956Z 15010KT 17/17 A2997 RMK A01 T01730173  RH  100%=      5-min Rain = 0
KCL1 250957Z 15011KT 17/17 A2997 RMK A01 T01730173  RH  100%=      5-min Rain = 0
KCL1 250958Z 15013KT 17/17 A2997 RMK A01 T01730173  RH  100%=      5-min Rain = 0
KCL1 250959Z 14011KT 17/17 A2997 RMK A01 T01730173  RH  100%=      5-min Rain = 0
KCL1 251000Z 14010KT 17/17 A2997 RMK A01 T01730173  RH  100%=      5-min Rain = 0
KCL1 251001Z 15010KT 17/17 A2997 RMK A01 T01720172  RH  100%=      5-min Rain = 0
KCL1 251002Z 14010KT 17/17 A2997 RMK A01 T01720172  RH  100%=      5-min Rain = 0
KCL1 251003Z 15011KT 17/17 A2997 RMK A01 T01720172  RH  100%=      5-min Rain = 0
KCL1 251004Z 15012KT 17/17 A2997 RMK A01 T01720172  RH  100%=      5-min Rain = 0
KCL1 251005Z 14011KT 17/17 A2997 RMK A01 T01720172  RH  100%=      5-min Rain = 0
KCL1 251006Z 15013KT 17/17 A2997 RMK A01 T01720172  RH  100%=      5-min Rain = 0
KCL1 251007Z 15012KT 17/17 A2997 RMK A01 T01720172  RH  100%=      5-min Rain = 0
KCL1 251008Z 15011KT 17/17 A2997 RMK A01 T01720172  RH  100%=      5-min Rain = 0
KCL1 251009Z 15009KT 17/17 A2997 RMK A01 T01720172  RH  100%=      5-min Rain = 0
KCL1 251010Z 15008KT 17/17 A2997 RMK A01 T01720172  RH  100%=      5-min Rain = 0
KCL1 251011Z 14011KT 17/17 A2997 RMK A01 T01720172  RH  100%=      5-min Rain = 0
KCL1 251012Z 15012KT 17/17 A2997 RMK A01 T01720172  RH  100%=      5-min Rain = 0
KCL1 251013Z 16012KT 17/17 A2997 RMK A01 T01720172  RH  100%=      5-min Rain = 0
KCL1 251014Z 16010KT 17/17 A2997 RMK A01 T01720172  RH  100%=      5-min Rain = 0
KCL1 251015Z 15011KT 17/17 A2997 RMK A01 T01720172  RH  100%=      5-min Rain = 0
KCL1 251016Z 15013KT 17/17 A2997 RMK A01 T01720172  RH  100%=      5-min Rain = 0
KCL1 251017Z 15014KT 17/17 A2997 RMK A01 T01720172  RH  100%=      5-min Rain = 0
KCL1 251018Z 15013KT 17/17 A2997 RMK A01 T01720172  RH  100%=      5-min Rain = 0
KCL1 251019Z 15011KT 17/17 A2997 RMK A01 T01720172  RH  100%=      5-min Rain = 0
KCL1 251020Z 15012KT 17/17 A2997 RMK A01 T01720172  RH  100%=      5-min Rain = 0
KCL1 251021Z 15010KT 17/17 A2998 RMK A01 T01720172  RH  100%=      5-min Rain = 0
KCL1 251022Z 15011KT 17/17 A2998 RMK A01 T01720172  RH  100%=      5-min Rain = 0
KCL1 251023Z 15012KT 17/17 A2998 RMK A01 T01720172  RH  100%=      5-min Rain = 0
KCL1 251024Z 16009KT 17/17 A2998 RMK A01 T01720172  RH  100%=      5-min Rain = 0
KCL1 251025Z 16009KT 17/17 A2998 RMK A01 T01720172  RH  100%=      5-min Rain = 0
KCL1 251026Z 15008KT 17/17 A2998 RMK A01 T01720172  RH  100%=      5-min Rain = 0
KCL1 251027Z 15010KT 17/17 A2998 RMK A01 T01720172  RH  100%=      5-min Rain = 0
KCL1 251028Z 14012KT 17/17 A2998 RMK A01 T01720172  RH  100%=      5-min Rain = 0
KCL1 251029Z 14013KT 17/17 A2998 RMK A01 T01720172  RH  100%=      5-min Rain = 0
KCL1 251030Z 15012KT 17/17 A2998 RMK A01 T01720172  RH  100%=      5-min Rain = 0
KCL1 251031Z 15011KT 17/17 A2998 RMK A01 T01720172  RH  100%=      5-min Rain = 0
KCL1 251032Z 14013KT 17/17 A2998 RMK A01 T01720172  RH  100%=      5-min Rain = 0
KCL1 251033Z 14011KT 17/17 A2998 RMK A01 T01710172  RH  100%=      5-min Rain = 0
KCL1 251034Z 15009KT 17/17 A2998 RMK A01 T01710171  RH  100%=      5-min Rain = 0
KCL1 251035Z 15012KT 17/17 A2998 RMK A01 T01710171  RH  100%=      5-min Rain = 0
KCL1 251036Z 15013KT 17/17 A2998 RMK A01 T01720172  RH  100%=      5-min Rain = 0
KCL1 251037Z 15010KT 17/17 A2998 RMK A01 T01710171  RH  100%=      5-min Rain = 0
KCL1 251038Z 15011KT 17/17 A2998 RMK A01 T01710171  RH  100%=      5-min Rain = 0
KCL1 251039Z 15012KT 17/17 A2998 RMK A01 T01710171  RH  100%=      5-min Rain = 0
KCL1 251040Z 15010KT 17/17 A2998 RMK A01 T01710171  RH  100%=      5-min Rain = 0
KCL1 251041Z 15013KT 17/17 A2998 RMK A01 T01710172  RH  100%=      5-min Rain = 0
KCL1 251042Z 15013KT 17/17 A2998 RMK A01 T01710171  RH  100%=      5-min Rain = 0
KCL1 251043Z 14010KT 17/17 A2998 RMK A01 T01710171  RH  100%=      5-min Rain = 0
KCL1 251044Z 14011KT 17/17 A2998 RMK A01 T01710172  RH  100%=      5-min Rain = 0
KCL1 251045Z 14010KT 17/17 A2998 RMK A01 T01710171  RH  100%=      5-min Rain = 0
KCL1 251046Z 14009KT 17/17 A2998 RMK A01 T01710171  RH  100%=      5-min Rain = 0
KCL1 251047Z 14013KT 17/17 A2998 RMK A01 T01710172  RH  100%=      5-min Rain = 0
KCL1 251048Z 14012KT 17/17 A2998 RMK A01 T01710171  RH  100%=      5-min Rain = 0
KCL1 251049Z 15011KT 17/17 A2998 RMK A01 T01710171  RH  100%=      5-min Rain = 0
KCL1 251050Z 15011KT 17/17 A2998 RMK A01 T01710171  RH  100%=      5-min Rain = 0
KCL1 251051Z 15012KT 17/17 A2998 RMK A01 T01710172  RH  100%=      5-min Rain = 0
KCL1 251052Z 15011KT 17/17 A2998 RMK A01 T01710172  RH  100%=      5-min Rain = 0
KCL1 251053Z 15010KT 17/17 A2998 RMK A01 T01720172  RH  100%=      5-min Rain = 0
KCL1 251054Z 14012KT 17/17 A2998 RMK A01 T01720172  RH  100%=      5-min Rain = 0
KCL1 251055Z 15011KT 17/17 A2998 RMK A01 T01720172  RH  100%=      5-min Rain = 0
KCL1 251056Z 15010KT 17/17 A2998 RMK A01 T01720172  RH  100%=      5-min Rain = 0
KCL1 251057Z 15010KT 17/17 A2998 RMK A01 T01720172  RH  100%=      5-min Rain = 0
KCL1 251058Z 15012KT 17/17 A2998 RMK A01 T01720172  RH  100%=      5-min Rain = 0
KCL1 251059Z 15009KT 17/17 A2998 RMK A01 T01720172  RH  100%=      5-min Rain = 0
KCL1 251100Z 15009KT 17/17 A2998 RMK A01 T01720172  RH  100%=      5-min Rain = 0
KCL1 251101Z 15009KT 17/17 A2998 RMK A01 T01720172  RH  100%=      5-min Rain = 0
KCL1 251102Z 15007KT 17/17 A2998 RMK A01 T01720172  RH  100%=      5-min Rain = 0
KCL1 251103Z 15010KT 17/17 A2998 RMK A01 T01720172  RH  100%=      5-min Rain = 0
KCL1 251104Z 14009KT 17/17 A2998 RMK A01 T01720172  RH  100%=      5-min Rain = 0
KCL1 251105Z 15008KT 17/17 A2999 RMK A01 T01720172  RH  100%=      5-min Rain = 0
KCL1 251106Z 16009KT 17/17 A2999 RMK A01 T01720172  RH  100%=      5-min Rain = 0
KCL1 251107Z 15008KT 17/17 A2999 RMK A01 T01720172  RH  100%=      5-min Rain = 0
KCL1 251108Z 15008KT 17/17 A2999 RMK A01 T01720172  RH  100%=      5-min Rain = 0
KCL1 251109Z 16009KT 17/17 A2999 RMK A01 T01720173  RH  100%=      5-min Rain = 0
KCL1 251110Z 15007KT 17/17 A2999 RMK A01 T01720172  RH  100%=      5-min Rain = 0
KCL1 251111Z 15008KT 17/17 A2999 RMK A01 T01730173  RH  100%=      5-min Rain = 0
KCL1 251112Z 15008KT 17/17 A2999 RMK A01 T01730173  RH  100%=      5-min Rain = 0
KCL1 251113Z 15007KT 17/17 A2999 RMK A01 T01730173  RH  100%=      5-min Rain = 0
KCL1 251114Z 16008KT 17/17 A2999 RMK A01 T01730173  RH  100%=      5-min Rain = 0
KCL1 251115Z 15008KT 17/17 A2999 RMK A01 T01730173  RH  100%=      5-min Rain = 0
KCL1 251116Z 16008KT 17/17 A2999 RMK A01 T01730173  RH  100%=      5-min Rain = 0
KCL1 251117Z 16010KT 17/17 A2999 RMK A01 T01740174  RH  100%=      5-min Rain = 0
KCL1 251118Z 15007KT 17/17 A2999 RMK A01 T01740174  RH  100%=      5-min Rain = 0
KCL1 251119Z 16006KT 17/17 A2999 RMK A01 T01740174  RH  100%=      5-min Rain = 0
KCL1 251120Z 15006KT 17/17 A2999 RMK A01 T01740174  RH  100%=      5-min Rain = 0
KCL1 251121Z 16008KT 17/17 A2999 RMK A01 T01740174  RH  100%=      5-min Rain = 0
KCL1 251122Z 16008KT 17/17 A2999 RMK A01 T01740174  RH  100%=      5-min Rain = 0
KCL1 251123Z 16007KT 17/17 A2999 RMK A01 T01740174  RH  100%=      5-min Rain = 0
KCL1 251124Z 16005KT 18/18 A2999 RMK A01 T01750175  RH  100%=      5-min Rain = 0
KCL1 251125Z 16008KT 18/18 A2999 RMK A01 T01750175  RH  100%=      5-min Rain = 0
KCL1 251126Z 15007KT 18/18 A2999 RMK A01 T01750175  RH  100%=      5-min Rain = 0
KCL1 251127Z 16009KT 17/18 A2999 RMK A01 T01740175  RH  100%=      5-min Rain = 0
KCL1 251128Z 16009KT 18/18 A2999 RMK A01 T01750175  RH  100%=      5-min Rain = 0
KCL1 251129Z 15008KT 18/18 A2999 RMK A01 T01750175  RH  100%=      5-min Rain = 0
KCL1 251130Z 15008KT 18/18 A2999 RMK A01 T01750175  RH  100%=      5-min Rain = 0
KCL1 251131Z 17010KT 18/18 A2999 RMK A01 T01750175  RH  100%=      5-min Rain = 0
KCL1 251132Z 17009KT 18/18 A2999 RMK A01 T01750175  RH  100%=      5-min Rain = 0
KCL1 251133Z 16007KT 18/18 A2999 RMK A01 T01750175  RH  100%=      5-min Rain = 0
KCL1 251134Z 16007KT 18/18 A2999 RMK A01 T01750175  RH  100%=      5-min Rain = 0
KCL1 251135Z 17009KT 18/18 A2999 RMK A01 T01750175  RH  100%=      5-min Rain = 0
KCL1 251136Z 17007KT 18/18 A2999 RMK A01 T01750175  RH  100%=      5-min Rain = 0
KCL1 251137Z 16008KT 18/18 A2999 RMK A01 T01750175  RH  100%=      5-min Rain = 0
KCL1 251138Z 16008KT 18/18 A2999 RMK A01 T01750175  RH  100%=      5-min Rain = 0
KCL1 251139Z 17010KT 18/18 A2999 RMK A01 T01760176  RH  100%=      5-min Rain = 0
KCL1 251140Z 17009KT 18/18 A2999 RMK A01 T01750175  RH  100%=      5-min Rain = 0
KCL1 251141Z 17010KT 18/18 A2999 RMK A01 T01750176  RH  100%=      5-min Rain = 0
KCL1 251142Z 16011KT 18/18 A2999 RMK A01 T01750176  RH  100%=      5-min Rain = 0
KCL1 251143Z 17013KT 18/18 A2999 RMK A01 T01760176  RH  100%=      5-min Rain = 0
KCL1 251144Z 17010KT 18/18 A30 RMK A01 T01760176  RH  100%=      5-min Rain = 0
KCL1 251145Z 16010KT 18/18 A30 RMK A01 T01750176  RH  100%=      5-min Rain = 0
KCL1 251146Z 16009G15KT 18/18 A30 RMK A01 T01760176  RH  100%=      5-min Rain = 0
KCL1 251147Z 17008KT 18/18 A30 RMK A01 T01760176  RH  100%=      5-min Rain = 0
KCL1 251148Z 16007KT 18/18 A30 RMK A01 T01760176  RH  100%=      5-min Rain = 0
KCL1 251149Z 16008KT 18/18 A30 RMK A01 T01760176  RH  100%=      5-min Rain = 0
KCL1 251150Z 17012KT 18/18 A30 RMK A01 T01760176  RH  100%=      5-min Rain = 0
KCL1 251151Z 17009KT 18/18 A30 RMK A01 T01760176  RH  100%=      5-min Rain = 0
KCL1 251152Z 17011KT 18/18 A30 RMK A01 T01760176  RH  100%=      5-min Rain = 0
KCL1 251153Z 17009G14KT 18/18 A30 RMK A01 T01760176  RH  100%=      5-min Rain = 0
KCL1 251154Z 17012KT 18/18 A30 RMK A01 T01760176  RH  100%=      5-min Rain = 0
KCL1 251155Z 18009KT 18/18 A30 RMK A01 T01760176  RH  100%=      5-min Rain = 0
KCL1 251156Z 16010KT 18/18 A30 RMK A01 T01760176  RH  100%=      5-min Rain = 0
KCL1 251157Z 17009KT 18/18 A30 RMK A01 T01760176  RH  100%=      5-min Rain = 0
KCL1 251158Z 17008KT 18/18 A30 RMK A01 T01760176  RH  100%=      5-min Rain = 0
KCL1 251159Z 17010KT 18/18 A30 RMK A01 T01760176  RH  100%=      5-min Rain = 0
KCL1 251200Z 17011KT 18/18 A30 RMK A01 T01770177  RH  100%=      5-min Rain = 0
KCL1 251201Z 18009KT 18/18 A30 RMK A01 T01760177  RH  100%=      5-min Rain = 0
KCL1 251202Z 17009KT 18/18 A30 RMK A01 T01760177  RH  100%=      5-min Rain = 0
KCL1 251203Z 17012KT 18/18 A30 RMK A01 T01760176  RH  100%=      5-min Rain = 0
KCL1 251204Z 16010KT 18/18 A30 RMK A01 T01760177  RH  100%=      5-min Rain = 0
KCL1 251205Z 17009KT 18/18 A30 RMK A01 T01770177  RH  100%=      5-min Rain = 0
KCL1 251206Z 17007KT 18/18 A30 RMK A01 T01770177  RH  100%=      5-min Rain = 0
KCL1 251207Z 16010KT 18/18 A30 RMK A01 T01770177  RH  100%=      5-min Rain = 0
KCL1 251208Z 18011KT 18/18 A30 RMK A01 T01770177  RH  100%=      5-min Rain = 0
KCL1 251209Z 17008KT 18/18 A30 RMK A01 T01770177  RH  100%=      5-min Rain = 0
KCL1 251210Z 17008KT 18/18 A30 RMK A01 T01770177  RH  100%=      5-min Rain = 0
KCL1 251211Z 18008KT 18/18 A30 RMK A01 T01770177  RH  100%=      5-min Rain = 0
KCL1 251212Z 19007KT 18/18 A30 RMK A01 T01770177  RH  100%=      5-min Rain = 0
KCL1 251213Z 17007KT 18/18 A30 RMK A01 T01770177  RH  100%=      5-min Rain = 0
KCL1 251214Z 16008KT 18/18 A30 RMK A01 T01760176  RH  100%=      5-min Rain = 0
KCL1 251215Z 18007KT 18/18 A30 RMK A01 T01760176  RH  100%=      5-min Rain = 0
KCL1 251216Z 17008KT 18/18 A30 RMK A01 T01760176  RH  100%=      5-min Rain = 0
KCL1 251217Z 17007KT 18/18 A30 RMK A01 T01760177  RH  100%=      5-min Rain = 0
KCL1 251218Z 17006KT 18/18 A30 RMK A01 T01770177  RH  100%=      5-min Rain = 0
KCL1 251219Z 16007KT 18/18 A30 RMK A01 T01770177  RH  100%=      5-min Rain = 0
KCL1 251220Z 17005KT 18/18 A30 RMK A01 T01770177  RH  100%=      5-min Rain = 0
KCL1 251221Z 18006KT 18/18 A30 RMK A01 T01770177  RH  100%=      5-min Rain = 0
KCL1 251222Z 18008KT 18/18 A30 RMK A01 T01770177  RH  100%=      5-min Rain = 0
KCL1 251223Z 17008KT 18/18 A30 RMK A01 T01770177  RH  100%=      5-min Rain = 0
KCL1 251224Z 17009KT 18/18 A30 RMK A01 T01770178  RH  100%=      5-min Rain = 0
KCL1 251225Z 17009KT 18/18 A30 RMK A01 T01770178  RH  100%=      5-min Rain = 0
KCL1 251226Z 16007KT 18/18 A30 RMK A01 T01770178  RH  100%=      5-min Rain = 0
KCL1 251227Z 17009KT 18/18 A30 RMK A01 T01780178  RH  100%=      5-min Rain = 0
KCL1 251228Z 17009KT 18/18 A3001 RMK A01 T01780178  RH  100%=      5-min Rain = 0
KCL1 251229Z 18005KT 18/18 A3001 RMK A01 T01780178  RH  100%=      5-min Rain = 0
KCL1 251230Z 16007G12KT 18/18 A3001 RMK A01 T01780178  RH  100%=      5-min Rain = 0
KCL1 251231Z 17006KT 18/18 A3001 RMK A01 T01780178  RH  100%=      5-min Rain = 0
KCL1 251232Z 17007KT 18/18 A3001 RMK A01 T01780178  RH  100%=      5-min Rain = 0
KCL1 251233Z 17008KT 18/18 A3001 RMK A01 T01780178  RH  100%=      5-min Rain = 0
KCL1 251234Z 17005KT 18/18 A3001 RMK A01 T01780178  RH  100%=      5-min Rain = 0
KCL1 251235Z 18005KT 18/18 A3001 RMK A01 T01780179  RH  100%=      5-min Rain = 0
KCL1 251236Z 16006KT 18/18 A3001 RMK A01 T01780178  RH  100%=      5-min Rain = 0
KCL1 251237Z 18005KT 18/18 A3001 RMK A01 T01790179  RH  100%=      5-min Rain = 0
KCL1 251238Z 18008KT 18/18 A3001 RMK A01 T01790179  RH  100%=      5-min Rain = 0
KCL1 251239Z 17006KT 18/18 A3001 RMK A01 T01790179  RH  100%=      5-min Rain = 0
KCL1 251240Z 18006KT 18/18 A3001 RMK A01 T01790180  RH  100%=      5-min Rain = 0
KCL1 251241Z 16008KT 18/18 A3001 RMK A01 T01790179  RH  100%=      5-min Rain = 0
KCL1 251242Z 16008KT 18/18 A3001 RMK A01 T01790179  RH  100%=      5-min Rain = 0
KCL1 251243Z 17005KT 18/18 A3001 RMK A01 T01800180  RH  100%=      5-min Rain = 0
KCL1 251244Z 17007KT 18/18 A3001 RMK A01 T01800180  RH  100%=      5-min Rain = 0
KCL1 251245Z 16005KT 18/18 A3001 RMK A01 T01800180  RH  100%=      5-min Rain = 0
KCL1 251246Z 17007KT 18/18 A3001 RMK A01 T01800180  RH  100%=      5-min Rain = 0
KCL1 251247Z 17006KT 18/18 A3001 RMK A01 T01800180  RH  100%=      5-min Rain = 0
KCL1 251248Z 16005KT 18/18 A3001 RMK A01 T01810181  RH  100%=      5-min Rain = 0
KCL1 251249Z 17007KT 18/18 A3001 RMK A01 T01810181  RH  100%=      5-min Rain = 0
KCL1 251250Z 17008KT 18/18 A3001 RMK A01 T01810181  RH  100%=      5-min Rain = 0
KCL1 251251Z 18008KT 18/18 A3001 RMK A01 T01810181  RH  100%=      5-min Rain = 0
KCL1 251252Z 18007KT 18/18 A3001 RMK A01 T01810181  RH  100%=      5-min Rain = 0
KCL1 251253Z 18006KT 18/18 A3001 RMK A01 T01810181  RH  100%=      5-min Rain = 0
KCL1 251254Z 17009KT 18/18 A3001 RMK A01 T01810181  RH  100%=      5-min Rain = 0
KCL1 251255Z 17009KT 18/18 A3001 RMK A01 T01810182  RH  100%=      5-min Rain = 0
KCL1 251256Z 17007KT 18/18 A3001 RMK A01 T01820182  RH  100%=      5-min Rain = 0
KCL1 251257Z 17007KT 18/18 A3001 RMK A01 T01810181  RH  100%=      5-min Rain = 0
KCL1 251258Z 17005KT 18/18 A3001 RMK A01 T01810182  RH  100%=      5-min Rain = 0
KCL1 251259Z 17006KT 18/18 A3001 RMK A01 T01820182  RH  100%=      5-min Rain = 0
KCL1 251300Z 17008KT 18/18 A3001 RMK A01 T01820182  RH  100%=      5-min Rain = 0
KCL1 251301Z 17011KT 18/18 A3001 RMK A01 T01820182  RH  100%=      5-min Rain = 0
KCL1 251302Z 17008KT 18/18 A3001 RMK A01 T01820182  RH  100%=      5-min Rain = 0
KCL1 251303Z 18006KT 18/18 A3001 RMK A01 T01820183  RH  100%=      5-min Rain = 0
KCL1 251304Z 18005KT 18/18 A3001 RMK A01 T01820182  RH  100%=      5-min Rain = 0
KCL1 251305Z 18006KT 18/18 A3001 RMK A01 T01820183  RH  100%=      5-min Rain = 0
KCL1 251306Z 16008KT 18/18 A3001 RMK A01 T01820182  RH  100%=      5-min Rain = 0
KCL1 251307Z 17009KT 18/18 A3001 RMK A01 T01820183  RH  100%=      5-min Rain = 0
KCL1 251308Z 18007KT 18/18 A3001 RMK A01 T01820182  RH  100%=      5-min Rain = 0
KCL1 251309Z 18008KT 18/18 A3001 RMK A01 T01820182  RH  100%=      5-min Rain = 0
KCL1 251310Z 17007KT 18/18 A3001 RMK A01 T01830183  RH  100%=      5-min Rain = 0
KCL1 251311Z 18009KT 18/18 A3001 RMK A01 T01820182  RH  100%=      5-min Rain = 0
KCL1 251312Z 19010KT 18/18 A3001 RMK A01 T01820183  RH  100%=      5-min Rain = 0
KCL1 251313Z 19008KT 18/18 A3001 RMK A01 T01820183  RH  100%=      5-min Rain = 0
KCL1 251314Z 19008KT 18/18 A3001 RMK A01 T01830183  RH  100%=      5-min Rain = 0
KCL1 251315Z 18010KT 18/18 A3001 RMK A01 T01820182  RH  100%=      5-min Rain = 0
KCL1 251316Z 18010KT 18/18 A3001 RMK A01 T01820182  RH  100%=      5-min Rain = 0
KCL1 251317Z 18007KT 18/18 A3001 RMK A01 T01820183  RH  100%=      5-min Rain = 0
KCL1 251318Z 17008KT 18/18 A3001 RMK A01 T01830183  RH  100%=      5-min Rain = 0
KCL1 251319Z 18006KT 18/18 A3001 RMK A01 T01830183  RH  100%=      5-min Rain = 0
KCL1 251320Z 18010KT 18/18 A3001 RMK A01 T01830183  RH  100%=      5-min Rain = 0
KCL1 251321Z 17010KT 18/18 A3001 RMK A01 T01830183  RH  100%=      5-min Rain = 0
KCL1 251322Z 18013KT 18/18 A3001 RMK A01 T01830183  RH  100%=      5-min Rain = 0
KCL1 251323Z 18010KT 18/18 A3001 RMK A01 T01830183  RH  100%=      5-min Rain = 0
KCL1 251324Z 18012KT 18/18 A3001 RMK A01 T01830183  RH  100%=      5-min Rain = 0
KCL1 251325Z 17012KT 18/18 A3001 RMK A01 T01830183  RH  100%=      5-min Rain = 0
KCL1 251326Z 18011KT 18/18 A3001 RMK A01 T01830183  RH  100%=      5-min Rain = 0
KCL1 251327Z 18014KT 18/18 A3001 RMK A01 T01830183  RH  100%=      5-min Rain = 0
KCL1 251328Z 19010KT 18/18 A3001 RMK A01 T01830183  RH  100%=      5-min Rain = 0
KCL1 251329Z 18010KT 18/18 A3002 RMK A01 T01830183  RH  100%=      5-min Rain = 0
KCL1 251330Z 18011KT 18/18 A3002 RMK A01 T01840184  RH  100%=      5-min Rain = 0
KCL1 251331Z 18012KT 18/18 A3002 RMK A01 T01840184  RH  100%=      5-min Rain = 0
KCL1 251332Z 18012KT 18/18 A3002 RMK A01 T01840184  RH  100%=      5-min Rain = 0
KCL1 251333Z 17011KT 18/18 A3002 RMK A01 T01830183  RH  100%=      5-min Rain = 0
KCL1 251334Z 17015KT 18/18 A3002 RMK A01 T01830183  RH  100%=      5-min Rain = 0
KCL1 251335Z 17012KT 18/18 A3002 RMK A01 T01830183  RH  100%=      5-min Rain = 0
KCL1 251336Z 18010KT 18/18 A3002 RMK A01 T01830183  RH  100%=      5-min Rain = 0
KCL1 251337Z 17012G17KT 18/18 A3002 RMK A01 T01830183  RH  100%=      5-min Rain = 0
KCL1 251338Z 17011KT 18/18 A3002 RMK A01 T01830183  RH  100%=      5-min Rain = 0
KCL1 251339Z 17012G18KT 18/18 A3002 RMK A01 T01820183  RH  100%=      5-min Rain = 0
KCL1 251340Z 18011KT 18/18 A3002 RMK A01 T01830183  RH  100%=      5-min Rain = 0
KCL1 251341Z 17010KT 18/18 A3002 RMK A01 T01830183  RH  100%=      5-min Rain = 0
KCL1 251342Z 18009KT 18/18 A3002 RMK A01 T01830183  RH  100%=      5-min Rain = 0
KCL1 251343Z 18013KT 18/18 A3002 RMK A01 T01820182  RH  100%=      5-min Rain = 0
KCL1 251344Z 17010KT 18/18 A3002 RMK A01 T01810182  RH  100%=      5-min Rain = 0
KCL1 251345Z 18011KT 18/18 A3002 RMK A01 T01810181  RH  100%=      5-min Rain = 0
KCL1 251346Z 17011KT 18/18 A3002 RMK A01 T01810181  RH  100%=      5-min Rain = 0
KCL1 251347Z 18011KT 18/18 A3002 RMK A01 T01810181  RH  100%=      5-min Rain = 0
KCL1 251348Z 18011KT 18/18 A3002 RMK A01 T01800180  RH  100%=      5-min Rain = 0
KCL1 251349Z 18009KT 18/18 A3002 RMK A01 T01800180  RH  100%=      5-min Rain = 0
KCL1 251350Z 18010KT 18/18 A3002 RMK A01 T01800180  RH  100%=      5-min Rain = 0
KCL1 251351Z 18011KT 18/18 A3002 RMK A01 T01800180  RH  100%=      5-min Rain = 0
KCL1 251352Z 18010KT 18/18 A3002 RMK A01 T01800180  RH  100%=      5-min Rain = 0
KCL1 251353Z 18010KT 18/18 A3002 RMK A01 T01800180  RH  100%=      5-min Rain = 0
KCL1 251354Z 18011KT 18/18 A3003 RMK A01 T01800180  RH  100%=      5-min Rain = 0
KCL1 251355Z 17010KT 18/18 A3002 RMK A01 T01800180  RH  100%=      5-min Rain = 0
KCL1 251356Z 18011KT 18/18 A3002 RMK A01 T01800180  RH  100%=      5-min Rain = 0
KCL1 251357Z 17012KT 18/18 A3002 RMK A01 T01800180  RH  100%=      5-min Rain = 0
KCL1 251358Z 18009KT 18/18 A3002 RMK A01 T01800180  RH  100%=      5-min Rain = 0
KCL1 251359Z 17009KT 18/18 A3003 RMK A01 T01800180  RH  100%=      5-min Rain = 0
KCL1 251400Z 18007KT 18/18 A3003 RMK A01 T01810181  RH  100%=      5-min Rain = 0
KCL1 251401Z 18008KT 18/18 A3003 RMK A01 T01820182  RH  100%=      5-min Rain = 0
KCL1 251402Z 18008KT 18/18 A3003 RMK A01 T01820183  RH  100%=      5-min Rain = 0
KCL1 251403Z 18007KT 18/18 A3003 RMK A01 T01820182  RH  100%=      5-min Rain = 0
KCL1 251404Z 18007KT 18/18 A3003 RMK A01 T01820182  RH  100%=      5-min Rain = 0
KCL1 251405Z 18009KT 18/18 A3003 RMK A01 T01820182  RH  100%=      5-min Rain = 0
KCL1 251406Z 19010KT 18/18 A3003 RMK A01 T01820182  RH  100%=      5-min Rain = 0
KCL1 251407Z 18008KT 18/18 A3003 RMK A01 T01810182  RH  100%=      5-min Rain = 0
KCL1 251408Z 18008KT 18/18 A3003 RMK A01 T01810181  RH  100%=      5-min Rain = 0
KCL1 251409Z 19011KT 18/18 A3003 RMK A01 T01810181  RH  100%=      5-min Rain = 0
KCL1 251410Z 19008KT 18/18 A3002 RMK A01 T01810182  RH  100%=      5-min Rain = 0
KCL1 251411Z 18008KT 18/18 A3002 RMK A01 T01820182  RH  100%=      5-min Rain = 0
KCL1 251412Z 19008KT 18/18 A3003 RMK A01 T01830183  RH  100%=      5-min Rain = 0
KCL1 251413Z 19010KT 18/18 A3003 RMK A01 T01830183  RH  100%=      5-min Rain = 0
KCL1 251414Z 18009KT 18/18 A3003 RMK A01 T01840184  RH  100%=      5-min Rain = 0
KCL1 251415Z 17007KT 19/19 A3003 RMK A01 T01850186  RH  100%=      5-min Rain = 0
KCL1 251416Z 19010KT 19/19 A3003 RMK A01 T01870187  RH  100%=      5-min Rain = 0
KCL1 251417Z 19010KT 19/19 A3003 RMK A01 T01870187  RH  100%=      5-min Rain = 0
KCL1 251418Z 17010KT 19/19 A3003 RMK A01 T01860187  RH  100%=      5-min Rain = 0
KCL1 251419Z 19010KT 19/19 A3003 RMK A01 T01860186  RH  100%=      5-min Rain = 0
KCL1 251420Z 19011G16KT 19/19 A3003 RMK A01 T01860186  RH  100%=      5-min Rain = 0
KCL1 251421Z 19009G14KT 19/19 A3003 RMK A01 T01860187  RH  100%=      5-min Rain = 0
KCL1 251422Z 18009KT 19/19 A3003 RMK A01 T01870187  RH  100%=      5-min Rain = 0
KCL1 251423Z 18008KT 19/19 A3003 RMK A01 T01870187  RH  100%=      5-min Rain = 0
KCL1 251424Z 18011KT 19/19 A3003 RMK A01 T01870187  RH  100%=      5-min Rain = 0
KCL1 251425Z 18011KT 19/19 A3003 RMK A01 T01870187  RH  100%=      5-min Rain = 0
KCL1 251426Z 18010KT 19/19 A3003 RMK A01 T01860186  RH  100%=      5-min Rain = 0
KCL1 251427Z 18011KT 19/19 A3003 RMK A01 T01850186  RH  100%=      5-min Rain = 0
KCL1 251428Z 18010KT 19/19 A3003 RMK A01 T01860186  RH  100%=      5-min Rain = 0
KCL1 251429Z 17011KT 19/19 A3003 RMK A01 T01870187  RH  100%=      5-min Rain = 0
KCL1 251430Z 18009KT 19/19 A3003 RMK A01 T01880188  RH  100%=      5-min Rain = 0
KCL1 251431Z 18009KT 19/19 A3003 RMK A01 T01880188  RH  100%=      5-min Rain = 0
KCL1 251432Z 17008KT 19/19 A3003 RMK A01 T01890189  RH  100%=      5-min Rain = 0
KCL1 251433Z 18009KT 19/19 A3003 RMK A01 T01890189  RH  100%=      5-min Rain = 0
KCL1 251434Z 17007KT 19/19 A3003 RMK A01 T01890189  RH  100%=      5-min Rain = 0
KCL1 251435Z 18009KT 19/19 A3003 RMK A01 T01890189  RH  100%=      5-min Rain = 0
KCL1 251436Z 18009KT 19/19 A3003 RMK A01 T01900190  RH  100%=      5-min Rain = 0
KCL1 251437Z 18008KT 19/19 A3003 RMK A01 T01890189  RH  100%=      5-min Rain = 0
KCL1 251438Z 18008KT 19/19 A3003 RMK A01 T01880189  RH  100%=      5-min Rain = 0
KCL1 251439Z 18008KT 19/19 A3003 RMK A01 T01890189  RH  100%=      5-min Rain = 0
KCL1 251440Z 18009KT 19/19 A3003 RMK A01 T01890189  RH  100%=      5-min Rain = 0
KCL1 251441Z 18008KT 19/19 A3003 RMK A01 T01890189  RH  100%=      5-min Rain = 0
KCL1 251442Z 19006KT 19/19 A3003 RMK A01 T01900190  RH  100%=      5-min Rain = 0
KCL1 251443Z 19007KT 19/19 A3003 RMK A01 T01900190  RH  100%=      5-min Rain = 0
KCL1 251444Z 18006KT 19/19 A3003 RMK A01 T01910191  RH  100%=      5-min Rain = 0
KCL1 251445Z 18007KT 19/19 A3003 RMK A01 T01910191  RH  100%=      5-min Rain = 0
KCL1 251446Z 19007KT 19/19 A3003 RMK A01 T01920192  RH  100%=      5-min Rain = 0
KCL1 251447Z 19007KT 19/19 A3003 RMK A01 T01910192  RH  100%=      5-min Rain = 0
KCL1 251448Z 20007KT 19/19 A3003 RMK A01 T01920192  RH  100%=      5-min Rain = 0
KCL1 251449Z 19006KT 19/19 A3003 RMK A01 T01920192  RH  100%=      5-min Rain = 0
KCL1 251450Z 19005KT 19/19 A3003 RMK A01 T01930193  RH  100%=      5-min Rain = 0
KCL1 251451Z 19010KT 19/19 A3003 RMK A01 T01940194  RH  100%=      5-min Rain = 0
KCL1 251452Z 18010KT 19/19 A3003 RMK A01 T01940194  RH  100%=      5-min Rain = 0
KCL1 251453Z 21006KT 20/20 A3003 RMK A01 T01950195  RH  100%=      5-min Rain = 0
KCL1 251454Z 18008KT 20/20 A3003 RMK A01 T01950195  RH  100%=      5-min Rain = 0
KCL1 251455Z 19009KT 20/20 A3003 RMK A01 T01950195  RH  100%=      5-min Rain = 0
KCL1 251456Z 18007KT 20/20 A3003 RMK A01 T01960196  RH  100%=      5-min Rain = 0
KCL1 251457Z 18008KT 20/20 A3003 RMK A01 T01960196  RH  100%=      5-min Rain = 0
KCL1 251458Z 17007KT 20/20 A3003 RMK A01 T01960197  RH  100%=      5-min Rain = 0
KCL1 251459Z 17007KT 20/20 A3003 RMK A01 T01970197  RH  100%=      5-min Rain = 0
KCL1 251500Z 18008KT 20/20 A3003 RMK A01 T01970197  RH  100%=      5-min Rain = 0
KCL1 251501Z 17007KT 20/20 A3003 RMK A01 T01960196  RH  100%=      5-min Rain = 0
KCL1 251502Z 16007KT 20/20 A3003 RMK A01 T01960196  RH  100%=      5-min Rain = 0
KCL1 251503Z 16009KT 20/20 A3003 RMK A01 T01960196  RH  100%=      5-min Rain = 0
KCL1 251504Z 17009KT 20/20 A3003 RMK A01 T01950196  RH  100%=      5-min Rain = 0
KCL1 251505Z 17007KT 20/20 A3003 RMK A01 T01950195  RH  100%=      5-min Rain = 0
KCL1 251506Z 17008KT 19/19 A3003 RMK A01 T01940194  RH  100%=      5-min Rain = 0
KCL1 251507Z 17009KT 19/19 A3003 RMK A01 T01940194  RH  100%=      5-min Rain = 0
KCL1 251508Z 17010KT 19/19 A3003 RMK A01 T01930193  RH  100%=      5-min Rain = 0
KCL1 251509Z 16008KT 19/19 A3003 RMK A01 T01930193  RH  100%=      5-min Rain = 0
KCL1 251510Z 16007KT 19/19 A3003 RMK A01 T01930193  RH  100%=      5-min Rain = 0
KCL1 251511Z 15009KT 19/19 A3003 RMK A01 T01940194  RH  100%=      5-min Rain = 0
KCL1 251512Z 16008KT 19/19 A3003 RMK A01 T01940194  RH  100%=      5-min Rain = 0
KCL1 251513Z 16009KT 20/20 A3003 RMK A01 T01950195  RH  100%=      5-min Rain = 0
KCL1 251514Z 16011KT 20/20 A3003 RMK A01 T01950195  RH  100%=      5-min Rain = 0
KCL1 251515Z 16011KT 20/20 A3003 RMK A01 T01950195  RH  100%=      5-min Rain = 0
KCL1 251516Z 16009KT 20/20 A3003 RMK A01 T01950195  RH  100%=      5-min Rain = 0
KCL1 251517Z 16011KT 20/20 A3003 RMK A01 T01950195  RH  100%=      5-min Rain = 0
KCL1 251518Z 16010KT 20/20 A3003 RMK A01 T01960196  RH  100%=      5-min Rain = 0
KCL1 251519Z 16009KT 20/20 A3003 RMK A01 T01970197  RH  100%=      5-min Rain = 0
KCL1 251520Z 16010KT 20/20 A3003 RMK A01 T01970197  RH  100%=      5-min Rain = 0
KCL1 251521Z 16010KT 20/20 A3003 RMK A01 T01970198  RH  100%=      5-min Rain = 0
KCL1 251522Z 17009KT 20/20 A3003 RMK A01 T01980198  RH  100%=      5-min Rain = 0
KCL1 251523Z 16009KT 20/20 A3003 RMK A01 T01990199  RH  100%=      5-min Rain = 0
KCL1 251524Z 17010KT 20/20 A3003 RMK A01 T02000200  RH  100%=      5-min Rain = 0
KCL1 251525Z 16010KT 20/20 A3003 RMK A01 T02000201  RH  100%=      5-min Rain = 0
KCL1 251526Z 16008KT 20/20 A3003 RMK A01 T02010202  RH  100%=      5-min Rain = 0
KCL1 251527Z 16011KT 20/20 A3003 RMK A01 T02030203  RH  100%=      5-min Rain = 0
KCL1 251528Z 16010KT 20/20 A3003 RMK A01 T02040202  RH  099%=      5-min Rain = 0
KCL1 251529Z 17008KT 20/20 A3003 RMK A01 T02030202  RH  099%=      5-min Rain = 0
KCL1 251530Z 16010KT 20/20 A3003 RMK A01 T02030202  RH  099%=      5-min Rain = 0
KCL1 251531Z 16010KT 20/20 A3003 RMK A01 T02030202  RH  099%=      5-min Rain = 0
KCL1 251532Z 17010KT 20/20 A3003 RMK A01 T02030201  RH  099%=      5-min Rain = 0
KCL1 251533Z 17009KT 20/20 A3003 RMK A01 T02030201  RH  099%=      5-min Rain = 0
KCL1 251534Z 17009KT 20/20 A3003 RMK A01 T02040202  RH  099%=      5-min Rain = 0
KCL1 251535Z 17010KT 21/20 A3003 RMK A01 T02060202  RH  098%=      5-min Rain = 0
KCL1 251536Z 17013KT 21/20 A3003 RMK A01 T02070201  RH  096%=      5-min Rain = 0
KCL1 251537Z 18011KT 21/20 A3003 RMK A01 T02080200  RH  095%=      5-min Rain = 0
KCL1 251538Z 18010KT 21/20 A3003 RMK A01 T02090201  RH  095%=      5-min Rain = 0
KCL1 251539Z 17011KT 21/20 A3003 RMK A01 T02100199  RH  094%=      5-min Rain = 0
KCL1 251540Z 18012KT 21/20 A3003 RMK A01 T02100200  RH  094%=      5-min Rain = 0
KCL1 251541Z 17011KT 21/20 A3003 RMK A01 T02110200  RH  093%=      5-min Rain = 0
KCL1 251542Z 17010KT 21/20 A3003 RMK A01 T02130201  RH  093%=      5-min Rain = 0
KCL1 251543Z 17011KT 22/20 A3003 RMK A01 T02150199  RH  091%=      5-min Rain = 0
KCL1 251544Z 19008G14KT 22/20 A3003 RMK A01 T02160200  RH  091%=      5-min Rain = 0
KCL1 251545Z 18010KT 22/20 A3003 RMK A01 T02170199  RH  090%=      5-min Rain = 0
KCL1 251546Z 18008KT 22/20 A3003 RMK A01 T02160199  RH  090%=      5-min Rain = 0
KCL1 251547Z 17007KT 22/20 A3003 RMK A01 T02160200  RH  091%=      5-min Rain = 0
KCL1 251548Z 17010KT 22/20 A3003 RMK A01 T02160199  RH  090%=      5-min Rain = 0
KCL1 251549Z 17011KT 22/20 A3003 RMK A01 T02170199  RH  090%=      5-min Rain = 0
KCL1 251550Z 18009KT 22/20 A3003 RMK A01 T02170199  RH  089%=      5-min Rain = 0
KCL1 251551Z 17011KT 22/20 A3003 RMK A01 T02150198  RH  090%=      5-min Rain = 0
KCL1 251552Z 17009KT 21/20 A3003 RMK A01 T02130198  RH  091%=      5-min Rain = 0
KCL1 251553Z 18011KT 21/20 A3003 RMK A01 T02130199  RH  092%=      5-min Rain = 0
KCL1 251554Z 17011KT 21/20 A3003 RMK A01 T02120199  RH  092%=      5-min Rain = 0
KCL1 251555Z 18011KT 21/20 A3003 RMK A01 T02120200  RH  093%=      5-min Rain = 0
KCL1 251556Z 16009KT 21/20 A3003 RMK A01 T02130200  RH  092%=      5-min Rain = 0
KCL1 251557Z 17011KT 21/20 A3003 RMK A01 T02140199  RH  091%=      5-min Rain = 0
KCL1 251558Z 17011KT 21/20 A3003 RMK A01 T02140199  RH  091%=      5-min Rain = 0
KCL1 251559Z 17010KT 21/20 A3003 RMK A01 T02130200  RH  092%=      5-min Rain = 0
KCL1 251600Z 17010KT 21/20 A3003 RMK A01 T02130199  RH  092%=      5-min Rain = 0
KCL1 251601Z 18011KT 21/20 A3003 RMK A01 T02130199  RH  092%=      5-min Rain = 0
KCL1 251602Z 17011KT 21/20 A3003 RMK A01 T02130199  RH  091%=      5-min Rain = 0
KCL1 251603Z 16009KT 21/20 A3003 RMK A01 T02130200  RH  092%=      5-min Rain = 0
KCL1 251604Z 16009KT 21/20 A3003 RMK A01 T02130200  RH  092%=      5-min Rain = 0
KCL1 251605Z 17009G14KT 22/20 A3003 RMK A01 T02150201  RH  092%=      5-min Rain = 0
KCL1 251606Z 17011KT 22/20 A3003 RMK A01 T02160200  RH  090%=      5-min Rain = 0
KCL1 251607Z 17011KT 22/20 A3003 RMK A01 T02170199  RH  090%=      5-min Rain = 0
KCL1 251608Z 17013KT 22/20 A3003 RMK A01 T02170199  RH  090%=      5-min Rain = 0
KCL1 251609Z 17013KT 22/20 A3003 RMK A01 T02160199  RH  090%=      5-min Rain = 0
KCL1 251610Z 17010KT 22/20 A3003 RMK A01 T02160199  RH  090%=      5-min Rain = 0
KCL1 251611Z 17012KT 22/20 A3003 RMK A01 T02160200  RH  090%=      5-min Rain = 0
KCL1 251612Z 18013KT 22/20 A3003 RMK A01 T02170198  RH  089%=      5-min Rain = 0
KCL1 251613Z 17011KT 22/20 A3003 RMK A01 T02170199  RH  090%=      5-min Rain = 0
KCL1 251614Z 17010KT 22/20 A3003 RMK A01 T02160200  RH  090%=      5-min Rain = 0
KCL1 251615Z 16013KT 22/20 A3003 RMK A01 T02160199  RH  090%=      5-min Rain = 0
KCL1 251616Z 16011KT 22/20 A3002 RMK A01 T02160198  RH  090%=      5-min Rain = 0
KCL1 251617Z 16011KT 22/20 A3003 RMK A01 T02160200  RH  090%=      5-min Rain = 0
KCL1 251618Z 16013KT 22/20 A3003 RMK A01 T02170199  RH  090%=      5-min Rain = 0
KCL1 251619Z 17011KT 22/20 A3003 RMK A01 T02160199  RH  089%=      5-min Rain = 0
KCL1 251620Z 17013KT 22/20 A3003 RMK A01 T02160199  RH  090%=      5-min Rain = 0
KCL1 251621Z 16012KT 22/20 A3003 RMK A01 T02150199  RH  090%=      5-min Rain = 0
KCL1 251622Z 16010KT 21/20 A3003 RMK A01 T02140199  RH  091%=      5-min Rain = 0
KCL1 251623Z 16011KT 21/20 A3003 RMK A01 T02140200  RH  091%=      5-min Rain = 0
KCL1 251624Z 17007KT 21/20 A3003 RMK A01 T02140200  RH  091%=      5-min Rain = 0
KCL1 251625Z 16009G14KT 21/20 A3003 RMK A01 T02140200  RH  091%=      5-min Rain = 0
KCL1 251626Z 16011KT 21/20 A3003 RMK A01 T02140199  RH  091%=      5-min Rain = 0
KCL1 251627Z 15010KT 21/20 A3003 RMK A01 T02130199  RH  092%=      5-min Rain = 0
KCL1 251628Z 16008KT 21/20 A3003 RMK A01 T02140199  RH  092%=      5-min Rain = 0
KCL1 251629Z 17009KT 21/20 A3003 RMK A01 T02130200  RH  092%=      5-min Rain = 0
KCL1 251630Z 16009KT 21/20 A3003 RMK A01 T02130199  RH  092%=      5-min Rain = 0
KCL1 251631Z 16008KT 21/20 A3003 RMK A01 T02120200  RH  093%=      5-min Rain = 0
KCL1 251632Z 14008KT 21/20 A3003 RMK A01 T02100200  RH  094%=      5-min Rain = 0
KCL1 251633Z 15009KT 21/20 A3003 RMK A01 T02090200  RH  095%=      5-min Rain = 0
KCL1 251634Z 14007KT 21/20 A3003 RMK A01 T02070202  RH  097%=      5-min Rain = 0
KCL1 251635Z 14007KT 21/20 A3003 RMK A01 T02060204  RH  099%=      5-min Rain = 0
KCL1 251636Z 14008KT 21/21 A3003 RMK A01 T02060205  RH  100%=      5-min Rain = 0
KCL1 251637Z 14008KT 21/21 A3003 RMK A01 T02050205  RH  100%=      5-min Rain = 0
KCL1 251638Z 15007KT 20/20 A3003 RMK A01 T02040204  RH  100%=      5-min Rain = 0
KCL1 251639Z 17006KT 20/20 A3003 RMK A01 T02030203  RH  100%=      5-min Rain = 0
KCL1 251640Z 16007KT 20/20 A3003 RMK A01 T02030203  RH  100%=      5-min Rain = 0
KCL1 251641Z 14007KT 20/20 A3003 RMK A01 T02030203  RH  100%=      5-min Rain = 0
KCL1 251642Z 14004KT 20/20 A3003 RMK A01 T02030203  RH  100%=      5-min Rain = 0
KCL1 251643Z 16004KT 20/20 A3003 RMK A01 T02020202  RH  100%=      5-min Rain = 0
KCL1 251644Z 15007KT 20/20 A3003 RMK A01 T02020202  RH  100%=      5-min Rain = 0
KCL1 251645Z 16009KT 20/20 A3003 RMK A01 T02020202  RH  100%=      5-min Rain = 0
KCL1 251646Z 17010KT 20/20 A3003 RMK A01 T02030203  RH  100%=      5-min Rain = 0
KCL1 251647Z 17009KT 20/20 A3003 RMK A01 T02040204  RH  100%=      5-min Rain = 0
KCL1 251648Z 16010KT 21/21 A3003 RMK A01 T02050205  RH  100%=      5-min Rain = 0
KCL1 251649Z 18008KT 21/21 A3003 RMK A01 T02070206  RH  100%=      5-min Rain = 0
KCL1 251650Z 16007KT 21/21 A3003 RMK A01 T02070206  RH  100%=      5-min Rain = 0
KCL1 251651Z 18007KT 21/21 A3003 RMK A01 T02080208  RH  100%=      5-min Rain = 0
KCL1 251652Z 17007KT 21/21 A3003 RMK A01 T02090206  RH  098%=      5-min Rain = 0
KCL1 251653Z 18009KT 21/21 A3004 RMK A01 T02100205  RH  097%=      5-min Rain = 0
KCL1 251654Z 18010KT 21/20 A3003 RMK A01 T02100202  RH  095%=      5-min Rain = 0
KCL1 251655Z 17009KT 21/20 A3003 RMK A01 T02100204  RH  096%=      5-min Rain = 0
KCL1 251656Z 17007KT 21/20 A3003 RMK A01 T02100203  RH  096%=      5-min Rain = 0
KCL1 251657Z 18008KT 21/20 A3003 RMK A01 T02110204  RH  096%=      5-min Rain = 0
KCL1 251658Z 16009KT 21/20 A3003 RMK A01 T02120202  RH  094%=      5-min Rain = 0
KCL1 251659Z 16008G13KT 21/20 A3004 RMK A01 T02120203  RH  094%=      5-min Rain = 0
KCL1 251700Z 17011KT 21/20 A3004 RMK A01 T02120202  RH  094%=      5-min Rain = 0
KCL1 251701Z 17010KT 21/20 A3004 RMK A01 T02120202  RH  094%=      5-min Rain = 0
KCL1 251702Z 18012KT 21/20 A3004 RMK A01 T02120203  RH  094%=      5-min Rain = 0
KCL1 251703Z 18010KT 21/20 A3004 RMK A01 T02110203  RH  095%=      5-min Rain = 0
KCL1 251704Z 17007KT 21/20 A3004 RMK A01 T02100203  RH  096%=      5-min Rain = 0
KCL1 251705Z 16008KT 21/20 A3004 RMK A01 T02090204  RH  097%=      5-min Rain = 0
KCL1 251706Z 16009KT 21/21 A3004 RMK A01 T02100205  RH  097%=      5-min Rain = 0
KCL1 251707Z 17010KT 21/21 A3004 RMK A01 T02090205  RH  098%=      5-min Rain = 0
KCL1 251708Z 17008KT 21/21 A3004 RMK A01 T02090206  RH  098%=      5-min Rain = 0
KCL1 251709Z 17011KT 21/21 A3004 RMK A01 T02080206  RH  099%=      5-min Rain = 0
KCL1 251710Z 18008KT 21/21 A3004 RMK A01 T02080206  RH  099%=      5-min Rain = 0
KCL1 251711Z 16007KT 21/21 A3004 RMK A01 T02070207  RH  100%=      5-min Rain = 0
KCL1 251712Z 17009KT 21/21 A3004 RMK A01 T02080207  RH  099%=      5-min Rain = 0
KCL1 251713Z 16012KT 21/21 A3004 RMK A01 T02080207  RH  099%=      5-min Rain = 0
KCL1 251714Z 16010KT 21/21 A3004 RMK A01 T02080207  RH  099%=      5-min Rain = 0
KCL1 251715Z 16010KT 21/21 A3004 RMK A01 T02080205  RH  098%=      5-min Rain = 0
KCL1 251716Z 17007KT 21/21 A3004 RMK A01 T02080206  RH  099%=      5-min Rain = 0
KCL1 251717Z 16008KT 21/21 A3004 RMK A01 T02080207  RH  100%=      5-min Rain = 0
KCL1 251718Z 18007KT 21/21 A3004 RMK A01 T02080207  RH  099%=      5-min Rain = 0
KCL1 251719Z 17009KT 21/21 A3004 RMK A01 T02080207  RH  099%=      5-min Rain = 0
KCL1 251720Z 17008KT 21/21 A3004 RMK A01 T02080207  RH  099%=      5-min Rain = 0
KCL1 251721Z 17008KT 21/21 A3004 RMK A01 T02080207  RH  099%=      5-min Rain = 0
KCL1 251722Z 16006KT 21/21 A3004 RMK A01 T02080209  RH  100%=      5-min Rain = 0
KCL1 251723Z 16009KT 21/21 A3004 RMK A01 T02090209  RH  100%=      5-min Rain = 0
KCL1 251724Z 17008KT 21/21 A3004 RMK A01 T02090208  RH  099%=      5-min Rain = 0
KCL1 251725Z 16007KT 21/21 A3004 RMK A01 T02090209  RH  099%=      5-min Rain = 0
KCL1 251726Z 16009KT 21/21 A3004 RMK A01 T02100210  RH  100%=      5-min Rain = 0
KCL1 251727Z 16009KT 21/21 A3004 RMK A01 T02110209  RH  099%=      5-min Rain = 0
KCL1 251728Z 16007KT 21/21 A3004 RMK A01 T02110209  RH  099%=      5-min Rain = 0
KCL1 251729Z 17008KT 21/21 A3004 RMK A01 T02110209  RH  099%=      5-min Rain = 0
KCL1 251730Z 16008KT 21/21 A3004 RMK A01 T02120209  RH  099%=      5-min Rain = 0
KCL1 251731Z 16009KT 21/21 A3004 RMK A01 T02120208  RH  098%=      5-min Rain = 0
KCL1 251732Z 16007KT 21/21 A3004 RMK A01 T02120211  RH  099%=      5-min Rain = 0
KCL1 251733Z 18008KT 21/21 A3004 RMK A01 T02130209  RH  098%=      5-min Rain = 0
KCL1 251734Z 18007KT 21/21 A3004 RMK A01 T02130208  RH  097%=      5-min Rain = 0
KCL1 251735Z 17008KT 21/21 A3004 RMK A01 T02130209  RH  097%=      5-min Rain = 0
KCL1 251736Z 18007KT 21/21 A3004 RMK A01 T02130211  RH  099%=      5-min Rain = 0
KCL1 251737Z 19007KT 21/21 A3004 RMK A01 T02140212  RH  099%=      5-min Rain = 0
KCL1 251738Z 18008KT 22/21 A3004 RMK A01 T02150210  RH  097%=      5-min Rain = 0
KCL1 251739Z 18006KT 22/21 A3004 RMK A01 T02150210  RH  097%=      5-min Rain = 0
KCL1 251740Z 19007KT 22/21 A3003 RMK A01 T02160209  RH  095%=      5-min Rain = 0
KCL1 251741Z 18006KT 22/21 A3003 RMK A01 T02160206  RH  094%=      5-min Rain = 0
KCL1 251742Z 16008KT 22/21 A3003 RMK A01 T02160208  RH  095%=      5-min Rain = 0
KCL1 251743Z 17007KT 22/21 A3003 RMK A01 T02160207  RH  095%=      5-min Rain = 0
KCL1 251744Z 17009KT 22/21 A3003 RMK A01 T02160207  RH  094%=      5-min Rain = 0
KCL1 251745Z 17009KT 22/21 A3003 RMK A01 T02160206  RH  094%=      5-min Rain = 0
KCL1 251746Z 16008KT 22/21 A3003 RMK A01 T02150206  RH  095%=      5-min Rain = 0
KCL1 251747Z 16007KT 21/21 A3003 RMK A01 T02140207  RH  096%=      5-min Rain = 0
KCL1 251748Z 16007KT 21/21 A3003 RMK A01 T02140207  RH  096%=      5-min Rain = 0
KCL1 251749Z 17008KT 21/21 A3003 RMK A01 T02140205  RH  095%=      5-min Rain = 0
KCL1 251750Z 18008KT 21/21 A3003 RMK A01 T02140206  RH  095%=      5-min Rain = 0
KCL1 251751Z 17007KT 21/21 A3003 RMK A01 T02140205  RH  095%=      5-min Rain = 0
KCL1 251752Z 17007KT 21/21 A3003 RMK A01 T02130206  RH  096%=      5-min Rain = 0
KCL1 251753Z 18007KT 21/21 A3003 RMK A01 T02130207  RH  096%=      5-min Rain = 0
KCL1 251754Z 17006KT 21/21 A3003 RMK A01 T02130206  RH  096%=      5-min Rain = 0
KCL1 251755Z 16006KT 21/21 A3003 RMK A01 T02130206  RH  095%=      5-min Rain = 0
KCL1 251756Z 16006KT 21/21 A3003 RMK A01 T02130205  RH  095%=      5-min Rain = 0
KCL1 251757Z 17007KT 21/21 A3003 RMK A01 T02130206  RH  095%=      5-min Rain = 0
KCL1 251758Z 15008KT 21/21 A3003 RMK A01 T02130205  RH  095%=      5-min Rain = 0
KCL1 251759Z 15005KT 21/21 A3003 RMK A01 T02130206  RH  096%=      5-min Rain = 0
KCL1 251800Z 14006KT 21/21 A3003 RMK A01 T02120207  RH  097%=      5-min Rain = 0
KCL1 251801Z 14007KT 21/21 A3002 RMK A01 T02120206  RH  096%=      5-min Rain = 0
KCL1 251802Z 14007KT 21/21 A3002 RMK A01 T02120206  RH  096%=      5-min Rain = 0
KCL1 251803Z 16007KT 21/21 A3003 RMK A01 T02120206  RH  097%=      5-min Rain = 0
KCL1 251804Z 16007KT 21/21 A3003 RMK A01 T02120206  RH  097%=      5-min Rain = 0
KCL1 251805Z 15005KT 21/21 A3003 RMK A01 T02120207  RH  097%=      5-min Rain = 0
KCL1 251806Z 15003KT 21/21 A3003 RMK A01 T02120207  RH  097%=      5-min Rain = 0
KCL1 251807Z 13004KT 21/21 A3002 RMK A01 T02120207  RH  097%=      5-min Rain = 0
KCL1 251808Z 14005KT 21/21 A3002 RMK A01 T02120206  RH  097%=      5-min Rain = 0
KCL1 251809Z 15006KT 21/21 A3002 RMK A01 T02120206  RH  096%=      5-min Rain = 0
KCL1 251810Z 14006KT 21/21 A3002 RMK A01 T02120206  RH  096%=      5-min Rain = 0
KCL1 251811Z 15006KT 21/21 A3002 RMK A01 T02130206  RH  096%=      5-min Rain = 0
KCL1 251812Z 14005KT 21/21 A3002 RMK A01 T02130207  RH  096%=      5-min Rain = 0
KCL1 251813Z 13005KT 21/21 A3002 RMK A01 T02130207  RH  097%=      5-min Rain = 0
KCL1 251814Z 15007KT 21/21 A3002 RMK A01 T02130208  RH  097%=      5-min Rain = 0
KCL1 251815Z 15008KT 21/21 A3003 RMK A01 T02140208  RH  096%=      5-min Rain = 0
KCL1 251816Z 15007KT 21/21 A3003 RMK A01 T02140207  RH  096%=      5-min Rain = 0
KCL1 251817Z 16007KT 22/21 A3003 RMK A01 T02150207  RH  095%=      5-min Rain = 0
KCL1 251818Z 15007KT 22/21 A3002 RMK A01 T02150207  RH  095%=      5-min Rain = 0
KCL1 251819Z 15008KT 22/21 A3002 RMK A01 T02150207  RH  095%=      5-min Rain = 0
KCL1 251820Z 16008KT 22/21 A3002 RMK A01 T02160206  RH  094%=      5-min Rain = 0
KCL1 251821Z 14008KT 22/21 A3002 RMK A01 T02160206  RH  094%=      5-min Rain = 0
KCL1 251822Z 15006KT 22/21 A3002 RMK A01 T02170206  RH  094%=      5-min Rain = 0
KCL1 251823Z 15008KT 22/21 A3002 RMK A01 T02170205  RH  093%=      5-min Rain = 0
KCL1 251824Z 15009KT 22/21 A3002 RMK A01 T02170205  RH  093%=      5-min Rain = 0
KCL1 251825Z 16007KT 22/21 A3003 RMK A01 T02170205  RH  093%=      5-min Rain = 0
KCL1 251826Z 15008KT 22/21 A3003 RMK A01 T02170205  RH  093%=      5-min Rain = 0
KCL1 251827Z 15007KT 22/20 A3003 RMK A01 T02170204  RH  093%=      5-min Rain = 0
KCL1 251828Z 16007KT 22/20 A3002 RMK A01 T02180204  RH  092%=      5-min Rain = 0
KCL1 251829Z 17007KT 22/20 A3002 RMK A01 T02180204  RH  091%=      5-min Rain = 0
KCL1 251830Z 15006KT 22/20 A3002 RMK A01 T02190203  RH  091%=      5-min Rain = 0
KCL1 251831Z 17011KT 22/20 A3002 RMK A01 T02190202  RH  090%=      5-min Rain = 0
KCL1 251832Z 15008KT 22/20 A3002 RMK A01 T02200202  RH  089%=      5-min Rain = 0
KCL1 251833Z 15008KT 22/20 A3002 RMK A01 T02200202  RH  090%=      5-min Rain = 0
KCL1 251834Z 15007KT 22/20 A3002 RMK A01 T02210202  RH  089%=      5-min Rain = 0
KCL1 251835Z 15007KT 22/20 A3002 RMK A01 T02210201  RH  089%=      5-min Rain = 0
KCL1 251836Z 16009KT 22/20 A3001 RMK A01 T02210201  RH  089%=      5-min Rain = 0
KCL1 251837Z 15009KT 22/20 A3001 RMK A01 T02220201  RH  088%=      5-min Rain = 0
KCL1 251838Z 16009KT 22/20 A3001 RMK A01 T02220201  RH  088%=      5-min Rain = 0
KCL1 251839Z 16007KT 22/20 A3001 RMK A01 T02230201  RH  088%=      5-min Rain = 0
KCL1 251840Z 15006KT 22/20 A3001 RMK A01 T02230201  RH  087%=      5-min Rain = 0
KCL1 251841Z 14008KT 22/20 A30 RMK A01 T02240202  RH  087%=      5-min Rain = 0
KCL1 251842Z 13009KT 23/20 A30 RMK A01 T02250201  RH  086%=      5-min Rain = 0
KCL1 251843Z 14010KT 23/20 A30 RMK A01 T02260201  RH  086%=      5-min Rain = 0
KCL1 251844Z 15010KT 23/20 A2999 RMK A01 T02270200  RH  085%=      5-min Rain = 0
KCL1 251845Z 15008KT 23/20 A2999 RMK A01 T02280201  RH  085%=      5-min Rain = 0
KCL1 251846Z 15008KT 23/20 A2999 RMK A01 T02280201  RH  085%=      5-min Rain = 0
KCL1 251847Z 14010G15KT 23/20 A2999 RMK A01 T02300201  RH  084%=      5-min Rain = 0
KCL1 251848Z 15011KT 23/20 A2999 RMK A01 T02300200  RH  083%=      5-min Rain = 0
KCL1 251849Z 15012KT 23/20 A2999 RMK A01 T02300200  RH  083%=      5-min Rain = 0
KCL1 251850Z 14011KT 23/20 A2999 RMK A01 T02290200  RH  084%=      5-min Rain = 0
KCL1 251851Z 15011G16KT 23/20 A2999 RMK A01 T02290201  RH  084%=      5-min Rain = 0
KCL1 251852Z 15013KT 23/20 A2999 RMK A01 T02290200  RH  083%=      5-min Rain = 0
KCL1 251853Z 15009KT 23/20 A2999 RMK A01 T02280199  RH  084%=      5-min Rain = 0
KCL1 251854Z 14012KT 23/20 A2999 RMK A01 T02280199  RH  084%=      5-min Rain = 0
KCL1 251855Z 15013KT 23/20 A2998 RMK A01 T02280198  RH  084%=      5-min Rain = 0
KCL1 251856Z 14013KT 23/20 A2998 RMK A01 T02270198  RH  084%=      5-min Rain = 0
KCL1 251857Z 15008KT 23/20 A2998 RMK A01 T02270199  RH  084%=      5-min Rain = 0
KCL1 251858Z 15011KT 23/20 A2998 RMK A01 T02270200  RH  085%=      5-min Rain = 0
KCL1 251859Z 15010KT 23/20 A2998 RMK A01 T02270199  RH  084%=      5-min Rain = 0
KCL1 251900Z 15011KT 23/20 A2999 RMK A01 T02270199  RH  084%=      5-min Rain = 0
KCL1 251901Z 14011KT 23/20 A2999 RMK A01 T02270199  RH  084%=      5-min Rain = 0
KCL1 251902Z 15010KT 23/20 A2999 RMK A01 T02260199  RH  085%=      5-min Rain = 0
KCL1 251903Z 16010KT 23/20 A2998 RMK A01 T02260198  RH  084%=      5-min Rain = 0
KCL1 251904Z 15011KT 23/20 A2998 RMK A01 T02250198  RH  085%=      5-min Rain = 0
KCL1 251905Z 15010KT 23/20 A2998 RMK A01 T02250199  RH  085%=      5-min Rain = 0
KCL1 251906Z 15010KT 22/20 A2998 RMK A01 T02240199  RH  086%=      5-min Rain = 0
KCL1 251907Z 16011KT 23/20 A2999 RMK A01 T02250200  RH  086%=      5-min Rain = 0
KCL1 251908Z 16012KT 22/20 A2999 RMK A01 T02240200  RH  086%=      5-min Rain = 0
KCL1 251909Z 15009KT 22/20 A2999 RMK A01 T02240200  RH  086%=      5-min Rain = 0
KCL1 251910Z 15009KT 22/20 A2999 RMK A01 T02240200  RH  086%=      5-min Rain = 0
KCL1 251911Z 16010KT 22/20 A2999 RMK A01 T02240200  RH  086%=      5-min Rain = 0
KCL1 251912Z 17011KT 22/20 A2999 RMK A01 T02240200  RH  086%=      5-min Rain = 0
KCL1 251913Z 16010KT 22/20 A2999 RMK A01 T02230200  RH  087%=      5-min Rain = 0
KCL1 251914Z 16011KT 22/20 A2999 RMK A01 T02220199  RH  087%=      5-min Rain = 0
KCL1 251915Z 17009KT 22/20 A2999 RMK A01 T02220200  RH  087%=      5-min Rain = 0
KCL1 251916Z 17011KT 22/20 A2999 RMK A01 T02220200  RH  087%=      5-min Rain = 0
KCL1 251917Z 15011KT 22/20 A2999 RMK A01 T02220200  RH  087%=      5-min Rain = 0
KCL1 251918Z 16012G18KT 22/20 A2999 RMK A01 T02210200  RH  088%=      5-min Rain = 0
KCL1 251919Z 16011G17KT 22/20 A2999 RMK A01 T02210199  RH  087%=      5-min Rain = 0
KCL1 251920Z 15012KT 22/20 A2999 RMK A01 T02210199  RH  087%=      5-min Rain = 0
KCL1 251921Z 16010KT 22/20 A2999 RMK A01 T02220199  RH  087%=      5-min Rain = 0
KCL1 251922Z 16015KT 22/20 A2999 RMK A01 T02210199  RH  087%=      5-min Rain = 0
KCL1 251923Z 16015KT 22/20 A2999 RMK A01 T02210198  RH  087%=      5-min Rain = 0
KCL1 251924Z 16016G21KT 22/20 A2999 RMK A01 T02210198  RH  087%=      5-min Rain = 0
KCL1 251925Z 16010G16KT 22/20 A30 RMK A01 T02210197  RH  087%=      5-min Rain = 0
KCL1 251926Z 17012KT 22/20 A30 RMK A01 T02210198  RH  087%=      5-min Rain = 0
KCL1 251927Z 17009KT 22/20 A30 RMK A01 T02210199  RH  087%=      5-min Rain = 0
KCL1 251928Z 18010KT 22/20 A30 RMK A01 T02200199  RH  088%=      5-min Rain = 0
KCL1 251929Z 17010KT 22/20 A30 RMK A01 T02200200  RH  089%=      5-min Rain = 0
KCL1 251930Z 18012KT 22/20 A30 RMK A01 T02200202  RH  090%=      5-min Rain = 0
KCL1 251931Z 18015KT 22/20 A30 RMK A01 T02190202  RH  090%=      5-min Rain = 0
KCL1 251932Z 18011KT 22/20 A30 RMK A01 T02180202  RH  091%=      5-min Rain = 0
KCL1 251933Z 18013KT 22/20 A30 RMK A01 T02180203  RH  091%=      5-min Rain = 0
KCL1 251934Z 17012KT 22/20 A30 RMK A01 T02170203  RH  092%=      5-min Rain = 0
KCL1 251935Z 18013KT 22/20 A30 RMK A01 T02170203  RH  092%=      5-min Rain = 0
KCL1 251936Z 17012G17KT 22/20 A30 RMK A01 T02160204  RH  093%=      5-min Rain = 0
KCL1 251937Z 18011KT 22/20 A30 RMK A01 T02160204  RH  093%=      5-min Rain = 0
KCL1 251938Z 17009KT 22/21 A2999 RMK A01 T02150205  RH  094%=      5-min Rain = 0
KCL1 251939Z 17011KT 22/21 A2999 RMK A01 T02150205  RH  094%=      5-min Rain = 0
KCL1 251940Z 18010KT 21/21 A2999 RMK A01 T02140205  RH  094%=      5-min Rain = 0
KCL1 251941Z 17008KT 21/21 A2999 RMK A01 T02140207  RH  095%=      5-min Rain = 0
KCL1 251942Z 18011KT 21/21 A2999 RMK A01 T02140207  RH  096%=      5-min Rain = 0
KCL1 251943Z 17012KT 21/21 A2999 RMK A01 T02130206  RH  095%=      5-min Rain = 0
KCL1 251944Z 17012KT 21/21 A2999 RMK A01 T02130206  RH  096%=      5-min Rain = 0.01
KCL1 251945Z 18012G18KT 21/21 A2999 RMK A01 T02120206  RH  096%=      5-min Rain = 0
KCL1 251946Z 18016KT 21/21 A2999 RMK A01 T02120205  RH  096%=      5-min Rain = 0
KCL1 251947Z 18012KT 21/21 A2999 RMK A01 T02120206  RH  096%=      5-min Rain = 0
KCL1 251948Z 17014KT 21/21 A2999 RMK A01 T02110207  RH  097%=      5-min Rain = 0
KCL1 251949Z 18012G17KT 21/21 A2998 RMK A01 T02110206  RH  097%=      5-min Rain = 0
KCL1 251950Z 18012KT 21/21 A2998 RMK A01 T02110208  RH  098%=      5-min Rain = 0
KCL1 251951Z 16010KT 21/21 A2998 RMK A01 T02100208  RH  099%=      5-min Rain = 0
KCL1 251952Z 16011G16KT 21/21 A2998 RMK A01 T02100209  RH  099%=      5-min Rain = 0
KCL1 251953Z 16012KT 21/21 A2998 RMK A01 T02090209  RH  100%=      5-min Rain = 0.01
KCL1 251954Z 16011KT 21/21 A2998 RMK A01 T02090209  RH  100%=      5-min Rain = 0
KCL1 251955Z 17012KT 21/21 A2997 RMK A01 T02080208  RH  100%=      5-min Rain = 0
KCL1 251956Z 16011KT 21/21 A2997 RMK A01 T02080208  RH  100%=      5-min Rain = 0
KCL1 251957Z 15011KT 21/21 A2997 RMK A01 T02070208  RH  100%=      5-min Rain = 0
KCL1 251958Z 15009KT 21/21 A2997 RMK A01 T02070207  RH  100%=      5-min Rain = 0
KCL1 251959Z 15011KT 21/21 A2997 RMK A01 T02070207  RH  100%=      5-min Rain = 0
KCL1 252000Z 15013KT 21/21 A2997 RMK A01 T02060206  RH  100%=      5-min Rain = 0.01
KCL1 252001Z 16013KT 21/21 A2996 RMK A01 T02060206  RH  100%=      5-min Rain = 0
KCL1 252002Z 16011KT 21/21 A2996 RMK A01 T02060206  RH  100%=      5-min Rain = 0
KCL1 252003Z 16010KT 21/21 A2997 RMK A01 T02060206  RH  100%=      5-min Rain = 0
KCL1 252004Z 17009KT 21/21 A2997 RMK A01 T02060206  RH  100%=      5-min Rain = 0
KCL1 252005Z 17008KT 21/21 A2997 RMK A01 T02060206  RH  100%=      5-min Rain = 0
KCL1 252006Z 18009KT 21/21 A2997 RMK A01 T02060206  RH  100%=      5-min Rain = 0
KCL1 252007Z 19007KT 21/21 A2997 RMK A01 T02060206  RH  100%=      5-min Rain = 0
KCL1 252008Z 20005KT 21/21 A2997 RMK A01 T02060206  RH  100%=      5-min Rain = 0
KCL1 252009Z 19005KT 21/21 A2997 RMK A01 T02060206  RH  100%=      5-min Rain = 0
KCL1 252010Z 21005KT 21/21 A2997 RMK A01 T02060206  RH  100%=      5-min Rain = 0
KCL1 252011Z 17004KT 21/21 A2997 RMK A01 T02060206  RH  100%=      5-min Rain = 0.01
KCL1 252012Z 14005KT 21/21 A2996 RMK A01 T02060206  RH  100%=      5-min Rain = 0
KCL1 252013Z 16003KT 21/21 A2996 RMK A01 T02060206  RH  100%=      5-min Rain = 0
KCL1 252014Z 17004KT 21/21 A2996 RMK A01 T02060206  RH  100%=      5-min Rain = 0
KCL1 252015Z 20006KT 21/21 A2996 RMK A01 T02060206  RH  100%=      5-min Rain = 0
KCL1 252016Z 19005KT 21/21 A2996 RMK A01 T02060206  RH  100%=      5-min Rain = 0
KCL1 252017Z 17004KT 21/21 A2996 RMK A01 T02060206  RH  100%=      5-min Rain = 0
KCL1 252018Z 18003KT 21/21 A2996 RMK A01 T02060206  RH  100%=      5-min Rain = 0
KCL1 252019Z 19003KT 21/21 A2997 RMK A01 T02060206  RH  100%=      5-min Rain = 0
KCL1 252020Z 19004KT 21/21 A2997 RMK A01 T02050206  RH  100%=      5-min Rain = 0
KCL1 252021Z 20004KT 21/21 A2997 RMK A01 T02050205  RH  100%=      5-min Rain = 0
KCL1 252022Z 21005KT 21/21 A2997 RMK A01 T02050205  RH  100%=      5-min Rain = 0
KCL1 252023Z 20007KT 21/21 A2998 RMK A01 T02050205  RH  100%=      5-min Rain = 0
KCL1 252024Z 21007KT 21/21 A2999 RMK A01 T02050205  RH  100%=      5-min Rain = 0.02
KCL1 252025Z 22008KT 20/20 A2999 RMK A01 T02040204  RH  100%=      5-min Rain = 0.02
KCL1 252026Z 21007KT 20/20 A2999 RMK A01 T02040204  RH  100%=      5-min Rain = 0
KCL1 252027Z 21007KT 20/20 A2999 RMK A01 T02030204  RH  100%=      5-min Rain = 0.03
KCL1 252028Z 22010KT 20/20 A2999 RMK A01 T02030203  RH  100%=      5-min Rain = 0.02
KCL1 252029Z 21011G17KT 20/20 A30 RMK A01 T02030203  RH  100%=      5-min Rain = 0.01
KCL1 252030Z 21012G17KT 20/20 A30 RMK A01 T02020202  RH  100%=      5-min Rain = 0.01
KCL1 252031Z 22010G15KT 20/20 A30 RMK A01 T02020202  RH  100%=      5-min Rain = 0.03
KCL1 252032Z 22016G22KT 20/20 A30 RMK A01 T02020202  RH  100%=      5-min Rain = 0.01
KCL1 252033Z 22014G19KT 20/20 A3001 RMK A01 T02020202  RH  100%=      5-min Rain = 0.01
KCL1 252034Z 21010KT 20/20 A3001 RMK A01 T02020202  RH  100%=      5-min Rain = 0.01
KCL1 252035Z 21007KT 20/20 A3001 RMK A01 T02010202  RH  100%=      5-min Rain = 0.01
KCL1 252036Z 21005KT 20/20 A3001 RMK A01 T02010201  RH  100%=      5-min Rain = 0
KCL1 252037Z 20005KT 20/20 A30 RMK A01 T02010201  RH  100%=      5-min Rain = 0.01
KCL1 252038Z 16009G14KT 20/20 A2999 RMK A01 T02010201  RH  100%=      5-min Rain = 0
KCL1 252039Z 17011KT 20/20 A30 RMK A01 T02000200  RH  100%=      5-min Rain = 0.01
KCL1 252040Z 18011KT 20/20 A2999 RMK A01 T02000200  RH  100%=      5-min Rain = 0
KCL1 252041Z 16008KT 20/20 A2999 RMK A01 T02000200  RH  100%=      5-min Rain = 0
KCL1 252042Z 15010KT 20/20 A2998 RMK A01 T02000200  RH  100%=      5-min Rain = 0
KCL1 252043Z 18007KT 20/20 A2997 RMK A01 T02000200  RH  100%=      5-min Rain = 0.01
KCL1 252044Z 18006KT 20/20 A2997 RMK A01 T02000200  RH  100%=      5-min Rain = 0
KCL1 252045Z 16007KT 20/20 A2997 RMK A01 T02000200  RH  100%=      5-min Rain = 0
KCL1 252046Z 16009KT 20/20 A2997 RMK A01 T02000200  RH  100%=      5-min Rain = 0
KCL1 252047Z 16011KT 20/20 A2997 RMK A01 T02000200  RH  100%=      5-min Rain = 0
KCL1 252048Z 16012KT 20/20 A2997 RMK A01 T01990199  RH  100%=      5-min Rain = 0
KCL1 252049Z 15012KT 20/20 A2997 RMK A01 T01990199  RH  100%=      5-min Rain = 0
KCL1 252050Z 15014G20KT 20/20 A2997 RMK A01 T01990199  RH  100%=      5-min Rain = 0
KCL1 252051Z 16014KT 20/20 A2997 RMK A01 T01990199  RH  100%=      5-min Rain = 0
KCL1 252052Z 17011KT 20/20 A2997 RMK A01 T01990199  RH  100%=      5-min Rain = 0
KCL1 252053Z 17011KT 20/20 A2998 RMK A01 T01990200  RH  100%=      5-min Rain = 0
KCL1 252054Z 18010KT 20/20 A2998 RMK A01 T01990199  RH  100%=      5-min Rain = 0
KCL1 252055Z 18014G19KT 20/20 A2998 RMK A01 T01990200  RH  100%=      5-min Rain = 0
KCL1 252056Z 17015KT 20/20 A2998 RMK A01 T01990200  RH  100%=      5-min Rain = 0
KCL1 252057Z 17013KT 20/20 A2999 RMK A01 T02000200  RH  100%=      5-min Rain = 0.01
KCL1 252058Z 18013KT 20/20 A2999 RMK A01 T02000200  RH  100%=      5-min Rain = 0
KCL1 252059Z 18013KT 20/20 A2999 RMK A01 T02000200  RH  100%=      5-min Rain = 0
KCL1 252100Z 18012KT 20/20 A2999 RMK A01 T02000200  RH  100%=      5-min Rain = 0
KCL1 252101Z 17015G20KT 20/20 A2999 RMK A01 T02000200  RH  100%=      5-min Rain = 0
KCL1 252102Z 17016KT 20/20 A2999 RMK A01 T02000200  RH  100%=      5-min Rain = 0.01
KCL1 252103Z 15014KT 20/20 A2999 RMK A01 T02000200  RH  100%=      5-min Rain = 0
KCL1 252104Z 15020KT 20/20 A2998 RMK A01 T02000200  RH  100%=      5-min Rain = 0
KCL1 252105Z 15019KT 20/20 A2998 RMK A01 T02000200  RH  100%=      5-min Rain = 0.01
KCL1 252106Z 15017G23KT 20/20 A2998 RMK A01 T02000200  RH  100%=      5-min Rain = 0
KCL1 252107Z 15020KT 20/20 A2998 RMK A01 T01990200  RH  100%=      5-min Rain = 0
KCL1 252108Z 14023KT 20/20 A2998 RMK A01 T02000200  RH  100%=      5-min Rain = 0
KCL1 252109Z 14025G30KT 20/20 A2997 RMK A01 T01990199  RH  100%=      5-min Rain = 0
KCL1 252110Z 14020G25KT 20/20 A2996 RMK A01 T01980198  RH  100%=      5-min Rain = 0
KCL1 252117Z 14012KT 19/18 A2995 RMK A01 T01890176  RH  092%=      5-min Rain = 0
KCL1 252118Z 16010KT 19/18 A2995 RMK A01 T01890175  RH  092%=      5-min Rain = 0
KCL1 252119Z 17012KT 19/17 A2996 RMK A01 T01890173  RH  091%=      5-min Rain = 0
KCL1 252120Z 14013KT 19/16 A2995 RMK A01 T01900164  RH  085%=      5-min Rain = 0
KCL1 252121Z 14011KT 19/16 A2995 RMK A01 T01920156  RH  080%=      5-min Rain = 0
KCL1 252122Z 16010KT 19/16 A2996 RMK A01 T01940159  RH  080%=      5-min Rain = 0
KCL1 252123Z 15011KT 19/16 A2996 RMK A01 T01940158  RH  079%=      5-min Rain = 0
KCL1 252124Z 15010KT 20/16 A2996 RMK A01 T01950160  RH  080%=      5-min Rain = 0
KCL1 252125Z 15011KT 19/16 A2996 RMK A01 T01940156  RH  078%=      5-min Rain = 0
KCL1 252126Z 16010KT 19/16 A2996 RMK A01 T01940155  RH  078%=      5-min Rain = 0
KCL1 252127Z 17009KT 19/16 A2996 RMK A01 T01940157  RH  079%=      5-min Rain = 0
KCL1 252128Z 16012KT 19/15 A2996 RMK A01 T01940152  RH  077%=      5-min Rain = 0
KCL1 252129Z 16010KT 19/15 A2996 RMK A01 T01940151  RH  076%=      5-min Rain = 0
KCL1 252130Z 17011KT 19/15 A2996 RMK A01 T01940151  RH  076%=      5-min Rain = 0
KCL1 252131Z 17008KT 19/15 A2996 RMK A01 T01940153  RH  077%=      5-min Rain = 0
KCL1 252132Z 17007KT 19/15 A2996 RMK A01 T01940153  RH  077%=      5-min Rain = 0
KCL1 252133Z 18007KT 19/15 A2995 RMK A01 T01930153  RH  077%=      5-min Rain = 0
KCL1 252134Z 18007KT 19/15 A2995 RMK A01 T01930151  RH  077%=      5-min Rain = 0
KCL1 252135Z 17008KT 19/15 A2995 RMK A01 T01930150  RH  076%=      5-min Rain = 0
KCL1 252136Z 16009KT 19/15 A2995 RMK A01 T01930150  RH  076%=      5-min Rain = 0
KCL1 252137Z 15008KT 19/15 A2995 RMK A01 T01930150  RH  076%=      5-min Rain = 0
KCL1 252138Z 15009KT 19/15 A2995 RMK A01 T01920154  RH  079%=      5-min Rain = 0
KCL1 252139Z 15010KT 19/15 A2995 RMK A01 T01900154  RH  080%=      5-min Rain = 0
KCL1 252140Z 15011KT 19/15 A2995 RMK A01 T01890151  RH  079%=      5-min Rain = 0
KCL1 252141Z 16010KT 19/15 A2996 RMK A01 T01890153  RH  080%=      5-min Rain = 0
KCL1 252142Z 15012KT 19/16 A2996 RMK A01 T01880156  RH  082%=      5-min Rain = 0
KCL1 252143Z 15009KT 19/16 A2996 RMK A01 T01860158  RH  083%=      5-min Rain = 0
KCL1 252144Z 15008KT 19/16 A2996 RMK A01 T01850159  RH  084%=      5-min Rain = 0
KCL1 252145Z 15007KT 18/16 A2996 RMK A01 T01840160  RH  086%=      5-min Rain = 0
KCL1 252146Z 15009KT 18/16 A2996 RMK A01 T01840162  RH  087%=      5-min Rain = 0
KCL1 252147Z 16009KT 18/16 A2996 RMK A01 T01830161  RH  087%=      5-min Rain = 0
KCL1 252148Z 16007KT 18/16 A2996 RMK A01 T01830162  RH  087%=      5-min Rain = 0
KCL1 252149Z 15005KT 18/16 A2995 RMK A01 T01830163  RH  088%=      5-min Rain = 0
KCL1 252150Z 17003KT 18/17 A2995 RMK A01 T01840165  RH  089%=      5-min Rain = 0
KCL1 252151Z 22003KT 18/17 A2996 RMK A01 T01840166  RH  089%=      5-min Rain = 0
KCL1 252152Z 23004KT 18/17 A2997 RMK A01 T01840170  RH  092%=      5-min Rain = 0
KCL1 252153Z 24005KT 18/17 A2997 RMK A01 T01830172  RH  093%=      5-min Rain = 0
KCL1 252154Z 27007KT 18/17 A2997 RMK A01 T01820172  RH  094%=      5-min Rain = 0
KCL1 252155Z 27009KT 18/17 A2998 RMK A01 T01820173  RH  095%=      5-min Rain = 0
KCL1 252156Z 27011KT 18/17 A2998 RMK A01 T01810173  RH  095%=      5-min Rain = 0
KCL1 252157Z 28014KT 18/17 A2998 RMK A01 T01810169  RH  093%=      5-min Rain = 0
KCL1 252158Z 28019G24KT 18/17 A2998 RMK A01 T01810167  RH  091%=      5-min Rain = 0
KCL1 252159Z 27017G25KT 18/17 A2998 RMK A01 T01820169  RH  092%=      5-min Rain = 0
KCL1 252200Z 28012KT 18/17 A2998 RMK A01 T01830171  RH  093%=      5-min Rain = 0
KCL1 252201Z 29015KT 18/18 A2998 RMK A01 T01840175  RH  094%=      5-min Rain = 0
KCL1 252202Z 30010KT 19/18 A2998 RMK A01 T01850180  RH  097%=      5-min Rain = 0
KCL1 252203Z 31011KT 19/19 A2998 RMK A01 T01850185  RH  100%=      5-min Rain = 0
KCL1 252204Z 31012KT 19/19 A2998 RMK A01 T01850186  RH  100%=      5-min Rain = 0
KCL1 252205Z 32010KT 19/19 A2998 RMK A01 T01850185  RH  100%=      5-min Rain = 0
KCL1 252206Z 31010KT 19/19 A2998 RMK A01 T01850185  RH  100%=      5-min Rain = 0
KCL1 252207Z 32008KT 19/19 A2998 RMK A01 T01850185  RH  100%=      5-min Rain = 0
KCL1 252208Z 31010KT 19/18 A2998 RMK A01 T01850183  RH  099%=      5-min Rain = 0
KCL1 252209Z 31011KT 19/18 A2998 RMK A01 T01850175  RH  093%=      5-min Rain = 0
KCL1 252210Z 32010KT 19/17 A2997 RMK A01 T01850168  RH  090%=      5-min Rain = 0
KCL1 252211Z 29005KT 18/17 A2997 RMK A01 T01840167  RH  090%=      5-min Rain = 0
KCL1 252212Z 22004KT 18/17 A2997 RMK A01 T01840167  RH  090%=      5-min Rain = 0
KCL1 252213Z 22003KT 18/16 A2997 RMK A01 T01840162  RH  087%=      5-min Rain = 0
KCL1 252214Z 14003KT 18/17 A2997 RMK A01 T01840168  RH  090%=      5-min Rain = 0
KCL1 252215Z 16002KT 19/16 A2997 RMK A01 T01850164  RH  088%=      5-min Rain = 0
KCL1 252216Z 28004KT 19/16 A2997 RMK A01 T01860162  RH  086%=      5-min Rain = 0
KCL1 252217Z 29004KT 19/15 A2997 RMK A01 T01870150  RH  079%=      5-min Rain = 0
KCL1 252218Z 27004KT 19/15 A2998 RMK A01 T01880145  RH  076%=      5-min Rain = 0
KCL1 252219Z 32003KT 19/15 A2998 RMK A01 T01880145  RH  076%=      5-min Rain = 0
KCL1 252220Z 34003KT 19/15 A2998 RMK A01 T01880146  RH  077%=      5-min Rain = 0
KCL1 252221Z 31002KT 19/15 A2998 RMK A01 T01860147  RH  078%=      5-min Rain = 0
KCL1 252222Z 29001KT 19/15 A2998 RMK A01 T01860148  RH  079%=      5-min Rain = 0
KCL1 252223Z 34002KT 19/15 A2998 RMK A01 T01850150  RH  080%=      5-min Rain = 0.01
KCL1 252224Z 32002KT 18/15 A2998 RMK A01 T01840152  RH  082%=      5-min Rain = 0.01
KCL1 252225Z 34005KT 18/15 A2998 RMK A01 T01810154  RH  084%=      5-min Rain = 0
KCL1 252226Z 34006KT 18/15 A2997 RMK A01 T01790152  RH  084%=      5-min Rain = 0
KCL1 252227Z 34005KT 18/16 A2997 RMK A01 T01770155  RH  087%=      5-min Rain = 0
KCL1 252228Z 36003KT 18/16 A2997 RMK A01 T01750156  RH  088%=      5-min Rain = 0
KCL1 252229Z 36004KT 17/16 A2998 RMK A01 T01740156  RH  090%=      5-min Rain = 0
KCL1 252230Z 36003KT 17/16 A2998 RMK A01 T01730157  RH  090%=      5-min Rain = 0
KCL1 252231Z 02002KT 17/16 A2998 RMK A01 T01720155  RH  090%=      5-min Rain = 0
KCL1 252232Z 06002KT 17/16 A2998 RMK A01 T01720158  RH  092%=      5-min Rain = 0
KCL1 252233Z 05003KT 17/16 A2997 RMK A01 T01720158  RH  092%=      5-min Rain = 0.01
KCL1 252234Z 08003KT 17/16 A2997 RMK A01 T01710158  RH  092%=      5-min Rain = 0
KCL1 252235Z 08005KT 17/16 A2997 RMK A01 T01710158  RH  092%=      5-min Rain = 0
KCL1 252236Z 07005KT 17/16 A2997 RMK A01 T01720155  RH  090%=      5-min Rain = 0
KCL1 252237Z 05006KT 17/16 A2997 RMK A01 T01730157  RH  091%=      5-min Rain = 0
KCL1 252238Z 04006KT 17/16 A2997 RMK A01 T01730155  RH  089%=      5-min Rain = 0
KCL1 252239Z 05006KT 17/16 A2997 RMK A01 T01730157  RH  090%=      5-min Rain = 0
KCL1 252240Z 04007KT 17/16 A2997 RMK A01 T01730160  RH  092%=      5-min Rain = 0
KCL1 252241Z 03007KT 17/16 A2996 RMK A01 T01730160  RH  092%=      5-min Rain = 0
KCL1 252242Z 02006KT 17/16 A2996 RMK A01 T01720158  RH  091%=      5-min Rain = 0
KCL1 252243Z 02007KT 17/16 A2996 RMK A01 T01720155  RH  090%=      5-min Rain = 0
KCL1 252244Z 02006KT 17/16 A2997 RMK A01 T01720156  RH  091%=      5-min Rain = 0
KCL1 252245Z 03006KT 17/16 A2998 RMK A01 T01710157  RH  091%=      5-min Rain = 0
KCL1 252246Z 04006KT 17/16 A2998 RMK A01 T01710157  RH  091%=      5-min Rain = 0
KCL1 252247Z 04007KT 17/16 A2998 RMK A01 T01720157  RH  091%=      5-min Rain = 0
KCL1 252248Z 03007KT 17/16 A2998 RMK A01 T01710156  RH  090%=      5-min Rain = 0
KCL1 252249Z 04007KT 17/16 A2998 RMK A01 T01720156  RH  091%=      5-min Rain = 0
KCL1 252250Z 03005KT 17/16 A2999 RMK A01 T01730158  RH  091%=      5-min Rain = 0
KCL1 252251Z 03007KT 17/16 A2999 RMK A01 T01730158  RH  091%=      5-min Rain = 0
KCL1 252252Z 03007KT 17/16 A2999 RMK A01 T01730158  RH  091%=      5-min Rain = 0
KCL1 252253Z 04007KT 17/16 A2999 RMK A01 T01730160  RH  092%=      5-min Rain = 0
KCL1 252254Z 04008KT 17/16 A2999 RMK A01 T01730161  RH  093%=      5-min Rain = 0
KCL1 252255Z 02007KT 17/16 A2999 RMK A01 T01720160  RH  093%=      5-min Rain = 0
KCL1 252256Z 02007KT 17/16 A2999 RMK A01 T01710160  RH  093%=      5-min Rain = 0
KCL1 252257Z 02008KT 17/16 A2998 RMK A01 T01710160  RH  093%=      5-min Rain = 0
KCL1 252258Z 02007KT 17/16 A2998 RMK A01 T01710160  RH  094%=      5-min Rain = 0
KCL1 252259Z 01006KT 17/16 A2998 RMK A01 T01710162  RH  094%=      5-min Rain = 0
KCL1 252300Z 01007KT 17/16 A2998 RMK A01 T01710162  RH  095%=      5-min Rain = 0
KCL1 252301Z 00007KT 17/16 A2997 RMK A01 T01710161  RH  094%=      5-min Rain = 0
KCL1 252302Z 01006KT 17/16 A2998 RMK A01 T01710156  RH  091%=      5-min Rain = 0
KCL1 252303Z 01006KT 17/16 A2998 RMK A01 T01710158  RH  092%=      5-min Rain = 0
KCL1 252304Z 01006KT 17/16 A2998 RMK A01 T01720157  RH  091%=      5-min Rain = 0
KCL1 252305Z 01007KT 17/15 A2998 RMK A01 T01720154  RH  089%=      5-min Rain = 0
KCL1 252306Z 01005KT 17/15 A2998 RMK A01 T01720154  RH  089%=      5-min Rain = 0
KCL1 252307Z 01006KT 17/16 A2997 RMK A01 T01730155  RH  089%=      5-min Rain = 0
KCL1 252308Z 02005KT 17/16 A2997 RMK A01 T01730155  RH  089%=      5-min Rain = 0
KCL1 252309Z 04003KT 17/16 A2998 RMK A01 T01740159  RH  091%=      5-min Rain = 0
KCL1 252310Z 06003KT 17/16 A2998 RMK A01 T01740161  RH  092%=      5-min Rain = 0
KCL1 252311Z 05004KT 17/16 A2998 RMK A01 T01740157  RH  090%=      5-min Rain = 0
KCL1 252312Z 05003KT 17/15 A2998 RMK A01 T01740154  RH  088%=      5-min Rain = 0
KCL1 252313Z 07003KT 18/16 A2998 RMK A01 T01750157  RH  089%=      5-min Rain = 0
KCL1 252314Z 10003KT 18/16 A2998 RMK A01 T01750161  RH  091%=      5-min Rain = 0
KCL1 252315Z 09004KT 18/16 A2998 RMK A01 T01760162  RH  092%=      5-min Rain = 0
KCL1 252316Z 08005KT 18/16 A2997 RMK A01 T01760162  RH  092%=      5-min Rain = 0
KCL1 252317Z 09007KT 18/16 A2996 RMK A01 T01760164  RH  093%=      5-min Rain = 0
KCL1 252318Z 09009KT 18/17 A2995 RMK A01 T01760166  RH  093%=      5-min Rain = 0
KCL1 252319Z 08010KT 18/17 A2994 RMK A01 T01760165  RH  093%=      5-min Rain = 0
KCL1 252320Z 09010KT 18/16 A2994 RMK A01 T01760162  RH  092%=      5-min Rain = 0
KCL1 252321Z 09010KT 18/16 A2994 RMK A01 T01760164  RH  093%=      5-min Rain = 0
KCL1 252322Z 10009KT 18/16 A2994 RMK A01 T01750164  RH  093%=      5-min Rain = 0
KCL1 252323Z 10009KT 18/17 A2994 RMK A01 T01750165  RH  094%=      5-min Rain = 0
KCL1 252324Z 10011KT 18/17 A2995 RMK A01 T01750165  RH  094%=      5-min Rain = 0
KCL1 252325Z 10009KT 18/17 A2996 RMK A01 T01750165  RH  094%=      5-min Rain = 0
KCL1 252326Z 10007KT 18/17 A2996 RMK A01 T01750166  RH  095%=      5-min Rain = 0
KCL1 252327Z 10005KT 17/17 A2995 RMK A01 T01740166  RH  095%=      5-min Rain = 0
KCL1 252328Z 10004KT 17/17 A2995 RMK A01 T01740165  RH  095%=      5-min Rain = 0
KCL1 252329Z 10004KT 17/17 A2996 RMK A01 T01730166  RH  095%=      5-min Rain = 0
KCL1 252330Z 08002KT 17/17 A2996 RMK A01 T01730168  RH  097%=      5-min Rain = 0
KCL1 252331Z 04003KT 17/17 A2995 RMK A01 T01730168  RH  097%=      5-min Rain = 0
KCL1 252332Z 03004KT 17/17 A2995 RMK A01 T01730169  RH  097%=      5-min Rain = 0
KCL1 252333Z 02005KT 17/17 A2995 RMK A01 T01730169  RH  098%=      5-min Rain = 0
KCL1 252334Z 35006KT 17/17 A2995 RMK A01 T01730169  RH  098%=      5-min Rain = 0
KCL1 252335Z 33009KT 17/17 A2995 RMK A01 T01730170  RH  098%=      5-min Rain = 0
KCL1 252336Z 32008KT 17/17 A2996 RMK A01 T01720169  RH  098%=      5-min Rain = 0
KCL1 252337Z 31008KT 17/17 A2996 RMK A01 T01730171  RH  099%=      5-min Rain = 0
KCL1 252338Z 29010KT 17/17 A2996 RMK A01 T01730172  RH  099%=      5-min Rain = 0
KCL1 252339Z 29013KT 17/17 A2997 RMK A01 T01730173  RH  100%=      5-min Rain = 0
KCL1 252340Z 30013KT 17/17 A2997 RMK A01 T01740173  RH  099%=      5-min Rain = 0
KCL1 252341Z 30011KT 17/17 A2997 RMK A01 T01740173  RH  099%=      5-min Rain = 0
KCL1 252342Z 29009KT 17/17 A2997 RMK A01 T01740173  RH  100%=      5-min Rain = 0
KCL1 252343Z 31008KT 17/17 A2997 RMK A01 T01740170  RH  097%=      5-min Rain = 0
KCL1 252344Z 31008KT 18/17 A2997 RMK A01 T01750169  RH  097%=      5-min Rain = 0
KCL1 252345Z 34006KT 17/17 A2997 RMK A01 T01740168  RH  096%=      5-min Rain = 0
KCL1 252346Z 01002KT 17/17 A2997 RMK A01 T01740167  RH  096%=      5-min Rain = 0
KCL1 252347Z 16007G12KT 18/17 A2997 RMK A01 T01750165  RH  094%=      5-min Rain = 0
KCL1 252348Z 18009KT 18/17 A2997 RMK A01 T01790171  RH  095%=      5-min Rain = 0
KCL1 252349Z 15008G13KT 19/17 A2997 RMK A01 T01850169  RH  090%=      5-min Rain = 0
KCL1 252350Z 17010KT 19/17 A2997 RMK A01 T01890168  RH  088%=      5-min Rain = 0
KCL1 252351Z 16008KT 19/17 A2997 RMK A01 T01920168  RH  086%=      5-min Rain = 0
KCL1 252352Z 15009KT 19/17 A2996 RMK A01 T01930169  RH  086%=      5-min Rain = 0
KCL1 252353Z 16010KT 19/17 A2997 RMK A01 T01930169  RH  086%=      5-min Rain = 0
KCL1 252354Z 16009KT 19/17 A2997 RMK A01 T01910170  RH  088%=      5-min Rain = 0
KCL1 252355Z 17010KT 19/17 A2997 RMK A01 T01880169  RH  089%=      5-min Rain = 0
KCL1 252356Z 17012KT 19/17 A2997 RMK A01 T01870169  RH  090%=      5-min Rain = 0
KCL1 252357Z 17010KT 19/17 A2997 RMK A01 T01860169  RH  090%=      5-min Rain = 0
KCL1 252358Z 17008KT 19/17 A2997 RMK A01 T01870171  RH  090%=      5-min Rain = 0
KCL1 252359Z 18009KT 19/17 A2997 RMK A01 T01880171  RH  090%=      5-min Rain = 0
KCL1 260000Z 18012KT 19/17 A2997 RMK A01 T01880172  RH  090%=      5-min Rain = 0
KCL1 260001Z 18009KT 19/17 A2997 RMK A01 T01890172  RH  090%=      5-min Rain = 0
KCL1 260002Z 18010KT 19/17 A2997 RMK A01 T01890173  RH  091%=      5-min Rain = 0
KCL1 260003Z 18010KT 19/18 A2996 RMK A01 T01890175  RH  092%=      5-min Rain = 0
KCL1 260004Z 18012KT 19/18 A2996 RMK A01 T01880176  RH  092%=      5-min Rain = 0
KCL1 260005Z 17010KT 19/18 A2996 RMK A01 T01880175  RH  093%=      5-min Rain = 0
KCL1 260006Z 17009KT 19/18 A2996 RMK A01 T01870176  RH  093%=      5-min Rain = 0
KCL1 260007Z 17009KT 19/18 A2996 RMK A01 T01860177  RH  094%=      5-min Rain = 0
KCL1 260008Z 16009KT 19/18 A2996 RMK A01 T01860177  RH  095%=      5-min Rain = 0
KCL1 260009Z 15009KT 19/18 A2996 RMK A01 T01860177  RH  095%=      5-min Rain = 0
KCL1 260010Z 16009KT 19/18 A2996 RMK A01 T01850177  RH  095%=      5-min Rain = 0
KCL1 260011Z 17010KT 18/18 A2996 RMK A01 T01830176  RH  095%=      5-min Rain = 0
KCL1 260012Z 16010KT 18/17 A2995 RMK A01 T01830173  RH  094%=      5-min Rain = 0
KCL1 260013Z 16011KT 18/17 A2995 RMK A01 T01840174  RH  094%=      5-min Rain = 0
KCL1 260014Z 15012KT 19/17 A2995 RMK A01 T01850173  RH  093%=      5-min Rain = 0
KCL1 260015Z 14012KT 19/17 A2995 RMK A01 T01860173  RH  092%=      5-min Rain = 0
KCL1 260016Z 14011KT 19/17 A2995 RMK A01 T01860171  RH  091%=      5-min Rain = 0
KCL1 260017Z 15010KT 19/17 A2995 RMK A01 T01860171  RH  091%=      5-min Rain = 0
KCL1 260018Z 15012KT 19/17 A2995 RMK A01 T01870171  RH  091%=      5-min Rain = 0
KCL1 260019Z 15011KT 19/17 A2995 RMK A01 T01870170  RH  090%=      5-min Rain = 0
KCL1 260020Z 17012KT 19/17 A2995 RMK A01 T01870169  RH  089%=      5-min Rain = 0
KCL1 260021Z 17013KT 19/17 A2995 RMK A01 T01880167  RH  088%=      5-min Rain = 0
KCL1 260022Z 16014KT 19/17 A2996 RMK A01 T01890167  RH  087%=      5-min Rain = 0
KCL1 260023Z 17012KT 19/17 A2995 RMK A01 T01900166  RH  086%=      5-min Rain = 0
KCL1 260024Z 16014KT 19/17 A2995 RMK A01 T01910165  RH  085%=      5-min Rain = 0
KCL1 260025Z 16013KT 19/16 A2995 RMK A01 T01910163  RH  084%=      5-min Rain = 0
KCL1 260026Z 16011KT 19/16 A2995 RMK A01 T01920164  RH  084%=      5-min Rain = 0
KCL1 260027Z 16011KT 19/16 A2995 RMK A01 T01920164  RH  083%=      5-min Rain = 0
KCL1 260028Z 17010KT 19/16 A2995 RMK A01 T01920163  RH  083%=      5-min Rain = 0
KCL1 260029Z 18011KT 19/16 A2996 RMK A01 T01920164  RH  083%=      5-min Rain = 0
KCL1 260030Z 18013KT 19/16 A2996 RMK A01 T01920162  RH  083%=      5-min Rain = 0
KCL1 260031Z 18014KT 19/16 A2997 RMK A01 T01920160  RH  082%=      5-min Rain = 0
KCL1 260032Z 18012KT 19/16 A2997 RMK A01 T01930162  RH  082%=      5-min Rain = 0
KCL1 260033Z 18011KT 19/16 A2997 RMK A01 T01930163  RH  083%=      5-min Rain = 0
KCL1 260034Z 17010KT 19/16 A2996 RMK A01 T01930164  RH  084%=      5-min Rain = 0
KCL1 260035Z 16011KT 19/16 A2995 RMK A01 T01920164  RH  084%=      5-min Rain = 0
KCL1 260036Z 15014KT 19/16 A2995 RMK A01 T01910162  RH  084%=      5-min Rain = 0
KCL1 260037Z 16014KT 19/16 A2995 RMK A01 T01900161  RH  083%=      5-min Rain = 0
KCL1 260038Z 16012KT 19/16 A2995 RMK A01 T01910160  RH  082%=      5-min Rain = 0
KCL1 260039Z 15010KT 19/16 A2995 RMK A01 T01900159  RH  082%=      5-min Rain = 0
KCL1 260040Z 16009KT 19/16 A2995 RMK A01 T01900160  RH  083%=      5-min Rain = 0
KCL1 260041Z 16011KT 19/16 A2995 RMK A01 T01890159  RH  082%=      5-min Rain = 0
KCL1 260042Z 17010KT 19/16 A2995 RMK A01 T01890158  RH  082%=      5-min Rain = 0
KCL1 260043Z 17011KT 19/16 A2995 RMK A01 T01890158  RH  082%=      5-min Rain = 0
KCL1 260044Z 15013KT 19/16 A2994 RMK A01 T01890158  RH  082%=      5-min Rain = 0
KCL1 260045Z 16014KT 19/16 A2994 RMK A01 T01900157  RH  081%=      5-min Rain = 0
KCL1 260046Z 16010KT 19/16 A2994 RMK A01 T01910157  RH  081%=      5-min Rain = 0
KCL1 260047Z 17013KT 19/16 A2994 RMK A01 T01910158  RH  081%=      5-min Rain = 0
KCL1 260048Z 16012KT 19/16 A2994 RMK A01 T01910159  RH  081%=      5-min Rain = 0
KCL1 260049Z 17011KT 19/16 A2993 RMK A01 T01920160  RH  082%=      5-min Rain = 0
KCL1 260050Z 17012KT 19/16 A2993 RMK A01 T01920160  RH  082%=      5-min Rain = 0
KCL1 260051Z 16011KT 19/16 A2993 RMK A01 T01930160  RH  081%=      5-min Rain = 0
KCL1 260052Z 16010KT 19/16 A2993 RMK A01 T01930162  RH  082%=      5-min Rain = 0
KCL1 260053Z 17009KT 19/16 A2993 RMK A01 T01930162  RH  082%=      5-min Rain = 0
KCL1 260054Z 17010KT 19/16 A2994 RMK A01 T01930164  RH  083%=      5-min Rain = 0
KCL1 260055Z 17011KT 19/16 A2994 RMK A01 T01940163  RH  082%=      5-min Rain = 0
KCL1 260056Z 17010KT 19/16 A2994 RMK A01 T01940163  RH  082%=      5-min Rain = 0
KCL1 260057Z 17008KT 20/16 A2994 RMK A01 T01950164  RH  083%=      5-min Rain = 0
KCL1 260058Z 16008KT 20/16 A2993 RMK A01 T01950163  RH  082%=      5-min Rain = 0
KCL1 260059Z 16007KT 20/16 A2993 RMK A01 T01950162  RH  081%=      5-min Rain = 0
KCL1 260100Z 16006KT 20/16 A2993 RMK A01 T01960164  RH  082%=      5-min Rain = 0
KCL1 260101Z 15006KT 20/16 A2993 RMK A01 T01960164  RH  081%=      5-min Rain = 0
KCL1 260102Z 15006KT 20/16 A2993 RMK A01 T01970163  RH  081%=      5-min Rain = 0
KCL1 260103Z 15006KT 20/17 A2993 RMK A01 T01970165  RH  082%=      5-min Rain = 0
KCL1 260104Z 14008KT 20/17 A2993 RMK A01 T01970165  RH  082%=      5-min Rain = 0
KCL1 260105Z 14007KT 20/17 A2993 RMK A01 T01970166  RH  082%=      5-min Rain = 0
KCL1 260106Z 15010KT 20/17 A2993 RMK A01 T01970166  RH  082%=      5-min Rain = 0
KCL1 260107Z 15013KT 20/17 A2994 RMK A01 T01970167  RH  083%=      5-min Rain = 0
KCL1 260108Z 15015KT 20/17 A2994 RMK A01 T01960166  RH  083%=      5-min Rain = 0
KCL1 260109Z 16011KT 20/16 A2994 RMK A01 T01960164  RH  082%=      5-min Rain = 0
KCL1 260110Z 16011KT 20/17 A2994 RMK A01 T01950165  RH  082%=      5-min Rain = 0
KCL1 260111Z 16010KT 20/16 A2994 RMK A01 T01950164  RH  082%=      5-min Rain = 0
KCL1 260112Z 16007KT 20/17 A2994 RMK A01 T01950165  RH  083%=      5-min Rain = 0
KCL1 260113Z 16011KT 20/16 A2994 RMK A01 T01950164  RH  082%=      5-min Rain = 0
KCL1 260114Z 16010KT 20/16 A2994 RMK A01 T01960163  RH  081%=      5-min Rain = 0
KCL1 260115Z 16011KT 20/16 A2994 RMK A01 T01970163  RH  081%=      5-min Rain = 0
KCL1 260116Z 15010KT 20/16 A2994 RMK A01 T01970164  RH  081%=      5-min Rain = 0
KCL1 260117Z 16011KT 20/17 A2994 RMK A01 T01960165  RH  082%=      5-min Rain = 0
KCL1 260118Z 16010KT 20/17 A2994 RMK A01 T01950165  RH  082%=      5-min Rain = 0
KCL1 260119Z 16012G17KT 19/17 A2994 RMK A01 T01940165  RH  083%=      5-min Rain = 0
KCL1 260120Z 16010KT 19/17 A2995 RMK A01 T01940166  RH  084%=      5-min Rain = 0
KCL1 260121Z 16011KT 19/17 A2995 RMK A01 T01930166  RH  084%=      5-min Rain = 0
KCL1 260122Z 16012G17KT 19/17 A2995 RMK A01 T01930165  RH  084%=      5-min Rain = 0
KCL1 260123Z 16011KT 19/16 A2995 RMK A01 T01930164  RH  084%=      5-min Rain = 0
KCL1 260124Z 17009KT 19/16 A2995 RMK A01 T01930164  RH  083%=      5-min Rain = 0
KCL1 260125Z 17012G17KT 19/17 A2995 RMK A01 T01930165  RH  084%=      5-min Rain = 0
KCL1 260126Z 17011KT 19/16 A2995 RMK A01 T01930163  RH  083%=      5-min Rain = 0
KCL1 260127Z 17011KT 19/16 A2995 RMK A01 T01930163  RH  083%=      5-min Rain = 0
KCL1 260128Z 17013KT 19/16 A2995 RMK A01 T01930163  RH  082%=      5-min Rain = 0
KCL1 260129Z 16011KT 19/16 A2995 RMK A01 T01940163  RH  083%=      5-min Rain = 0
KCL1 260130Z 16011KT 19/16 A2995 RMK A01 T01940164  RH  083%=      5-min Rain = 0
KCL1 260131Z 16010KT 19/16 A2995 RMK A01 T01940163  RH  082%=      5-min Rain = 0
KCL1 260132Z 16010KT 19/16 A2995 RMK A01 T01940164  RH  083%=      5-min Rain = 0
KCL1 260133Z 16010G15KT 19/17 A2995 RMK A01 T01930165  RH  083%=      5-min Rain = 0
KCL1 260134Z 16012KT 19/17 A2994 RMK A01 T01930165  RH  084%=      5-min Rain = 0
KCL1 260135Z 16011KT 19/16 A2994 RMK A01 T01930164  RH  083%=      5-min Rain = 0
KCL1 260136Z 17011KT 19/17 A2995 RMK A01 T01940166  RH  084%=      5-min Rain = 0
KCL1 260137Z 16011KT 19/17 A2995 RMK A01 T01940168  RH  085%=      5-min Rain = 0
KCL1 260138Z 16012KT 19/17 A2995 RMK A01 T01930169  RH  086%=      5-min Rain = 0
KCL1 260139Z 16011KT 19/17 A2994 RMK A01 T01930170  RH  087%=      5-min Rain = 0
KCL1 260140Z 16014KT 19/17 A2994 RMK A01 T01920170  RH  087%=      5-min Rain = 0
KCL1 260141Z 16011G16KT 19/17 A2994 RMK A01 T01920170  RH  087%=      5-min Rain = 0
KCL1 260142Z 16010KT 19/17 A2994 RMK A01 T01920171  RH  087%=      5-min Rain = 0
KCL1 260143Z 16011KT 19/17 A2994 RMK A01 T01920171  RH  088%=      5-min Rain = 0
KCL1 260144Z 16012KT 19/17 A2994 RMK A01 T01910170  RH  088%=      5-min Rain = 0
KCL1 260145Z 16014KT 19/17 A2994 RMK A01 T01920168  RH  086%=      5-min Rain = 0
KCL1 260146Z 16011KT 19/17 A2994 RMK A01 T01930169  RH  086%=      5-min Rain = 0
KCL1 260147Z 16012KT 19/17 A2994 RMK A01 T01930169  RH  086%=      5-min Rain = 0
KCL1 260148Z 16010KT 19/17 A2994 RMK A01 T01930171  RH  087%=      5-min Rain = 0
KCL1 260149Z 16012KT 19/17 A2994 RMK A01 T01930171  RH  087%=      5-min Rain = 0
KCL1 260150Z 16011KT 19/17 A2994 RMK A01 T01920170  RH  087%=      5-min Rain = 0
KCL1 260151Z 16012KT 19/17 A2994 RMK A01 T01920169  RH  087%=      5-min Rain = 0
KCL1 260152Z 16010KT 19/17 A2994 RMK A01 T01920168  RH  086%=      5-min Rain = 0
KCL1 260153Z 16012KT 19/17 A2994 RMK A01 T01920169  RH  086%=      5-min Rain = 0
KCL1 260154Z 16013KT 19/17 A2994 RMK A01 T01920169  RH  087%=      5-min Rain = 0
KCL1 260155Z 16012KT 19/17 A2994 RMK A01 T01920169  RH  087%=      5-min Rain = 0
KCL1 260156Z 15010KT 19/17 A2994 RMK A01 T01920171  RH  087%=      5-min Rain = 0
KCL1 260157Z 15009KT 19/17 A2994 RMK A01 T01920172  RH  088%=      5-min Rain = 0
KCL1 260158Z 15008KT 19/17 A2994 RMK A01 T01900172  RH  089%=      5-min Rain = 0
KCL1 260159Z 15010KT 19/17 A2994 RMK A01 T01890172  RH  090%=      5-min Rain = 0
KCL1 260200Z 15010KT 19/17 A2994 RMK A01 T01890171  RH  090%=      5-min Rain = 0
KCL1 260201Z 14012KT 19/17 A2994 RMK A01 T01890172  RH  090%=      5-min Rain = 0
KCL1 260202Z 14013KT 19/17 A2994 RMK A01 T01880172  RH  090%=      5-min Rain = 0
KCL1 260203Z 14013KT 19/17 A2994 RMK A01 T01870173  RH  092%=      5-min Rain = 0
KCL1 260204Z 14012KT 19/17 A2994 RMK A01 T01850174  RH  093%=      5-min Rain = 0
KCL1 260205Z 15011KT 18/18 A2994 RMK A01 T01830175  RH  095%=      5-min Rain = 0
KCL1 260206Z 15010KT 18/18 A2994 RMK A01 T01820176  RH  096%=      5-min Rain = 0
KCL1 260207Z 16009KT 18/18 A2994 RMK A01 T01820176  RH  096%=      5-min Rain = 0
KCL1 260208Z 15009KT 18/18 A2994 RMK A01 T01810176  RH  097%=      5-min Rain = 0
KCL1 260209Z 15011KT 18/18 A2994 RMK A01 T01810175  RH  096%=      5-min Rain = 0
KCL1 260210Z 15010KT 18/18 A2994 RMK A01 T01820175  RH  096%=      5-min Rain = 0
KCL1 260211Z 16009KT 18/18 A2994 RMK A01 T01820175  RH  095%=      5-min Rain = 0
KCL1 260212Z 15009KT 18/18 A2994 RMK A01 T01820175  RH  095%=      5-min Rain = 0
KCL1 260213Z 16009KT 18/18 A2994 RMK A01 T01820176  RH  096%=      5-min Rain = 0
KCL1 260214Z 15009KT 18/18 A2994 RMK A01 T01820176  RH  096%=      5-min Rain = 0
KCL1 260215Z 15010KT 18/18 A2994 RMK A01 T01820176  RH  096%=      5-min Rain = 0
KCL1 260216Z 15009KT 18/18 A2994 RMK A01 T01810175  RH  096%=      5-min Rain = 0
KCL1 260217Z 15009KT 18/18 A2994 RMK A01 T01810176  RH  097%=      5-min Rain = 0
KCL1 260218Z 15009KT 18/18 A2994 RMK A01 T01810176  RH  097%=      5-min Rain = 0
KCL1 260219Z 15008KT 18/18 A2994 RMK A01 T01810177  RH  097%=      5-min Rain = 0
KCL1 260220Z 16009KT 18/18 A2994 RMK A01 T01800177  RH  098%=      5-min Rain = 0
KCL1 260221Z 16009KT 18/18 A2994 RMK A01 T01800176  RH  097%=      5-min Rain = 0
KCL1 260222Z 16008KT 18/18 A2994 RMK A01 T01810175  RH  096%=      5-min Rain = 0
KCL1 260223Z 17009KT 18/18 A2994 RMK A01 T01820175  RH  096%=      5-min Rain = 0
KCL1 260224Z 17007KT 18/18 A2994 RMK A01 T01820175  RH  095%=      5-min Rain = 0
KCL1 260225Z 17007KT 18/18 A2994 RMK A01 T01820175  RH  096%=      5-min Rain = 0
KCL1 260226Z 17007KT 18/18 A2994 RMK A01 T01820175  RH  096%=      5-min Rain = 0
KCL1 260227Z 17007KT 18/18 A2994 RMK A01 T01820176  RH  096%=      5-min Rain = 0
KCL1 260228Z 17006KT 18/18 A2994 RMK A01 T01820176  RH  096%=      5-min Rain = 0
KCL1 260229Z 17007KT 18/18 A2994 RMK A01 T01810176  RH  097%=      5-min Rain = 0
KCL1 260230Z 17007KT 18/18 A2994 RMK A01 T01810175  RH  096%=      5-min Rain = 0
KCL1 260231Z 17006KT 18/18 A2994 RMK A01 T01810175  RH  096%=      5-min Rain = 0
KCL1 260232Z 17006KT 18/18 A2994 RMK A01 T01810175  RH  096%=      5-min Rain = 0
KCL1 260233Z 17006KT 18/18 A2994 RMK A01 T01810175  RH  096%=      5-min Rain = 0
KCL1 260234Z 17007KT 18/18 A2994 RMK A01 T01810175  RH  096%=      5-min Rain = 0
KCL1 260235Z 17006KT 18/18 A2994 RMK A01 T01810176  RH  097%=      5-min Rain = 0
KCL1 260236Z 17006KT 18/18 A2994 RMK A01 T01810176  RH  097%=      5-min Rain = 0
KCL1 260237Z 17006KT 18/18 A2994 RMK A01 T01810176  RH  097%=      5-min Rain = 0
KCL1 260238Z 17006KT 18/18 A2994 RMK A01 T01810176  RH  097%=      5-min Rain = 0
KCL1 260239Z 16007KT 18/18 A2994 RMK A01 T01800175  RH  097%=      5-min Rain = 0
KCL1 260240Z 16007KT 18/18 A2994 RMK A01 T01800175  RH  096%=      5-min Rain = 0
KCL1 260241Z 16007KT 18/18 A2994 RMK A01 T01810175  RH  096%=      5-min Rain = 0
KCL1 260242Z 15007KT 18/17 A2993 RMK A01 T01810174  RH  096%=      5-min Rain = 0
KCL1 260243Z 15007KT 18/17 A2993 RMK A01 T01810174  RH  096%=      5-min Rain = 0
KCL1 260244Z 15007KT 18/17 A2994 RMK A01 T01810174  RH  095%=      5-min Rain = 0
KCL1 260245Z 15008KT 18/17 A2994 RMK A01 T01810173  RH  095%=      5-min Rain = 0
KCL1 260246Z 16007KT 18/17 A2994 RMK A01 T01810172  RH  095%=      5-min Rain = 0
KCL1 260247Z 15008KT 18/17 A2994 RMK A01 T01810171  RH  094%=      5-min Rain = 0
KCL1 260248Z 16008KT 18/17 A2993 RMK A01 T01810170  RH  093%=      5-min Rain = 0
KCL1 260249Z 16008KT 18/17 A2993 RMK A01 T01810168  RH  092%=      5-min Rain = 0
KCL1 260250Z 16008KT 18/17 A2994 RMK A01 T01820167  RH  090%=      5-min Rain = 0
KCL1 260251Z 16008KT 18/17 A2994 RMK A01 T01840166  RH  089%=      5-min Rain = 0
KCL1 260252Z 17010KT 18/16 A2994 RMK A01 T01840164  RH  088%=      5-min Rain = 0
KCL1 260253Z 16008KT 19/16 A2993 RMK A01 T01860162  RH  086%=      5-min Rain = 0
KCL1 260254Z 16008KT 19/16 A2994 RMK A01 T01880162  RH  085%=      5-min Rain = 0
KCL1 260255Z 17009KT 19/16 A2994 RMK A01 T01890162  RH  085%=      5-min Rain = 0
KCL1 260256Z 17008KT 19/16 A2994 RMK A01 T01890162  RH  084%=      5-min Rain = 0
KCL1 260257Z 16008KT 19/16 A2994 RMK A01 T01900162  RH  084%=      5-min Rain = 0
KCL1 260258Z 17009G14KT 19/16 A2994 RMK A01 T01910163  RH  084%=      5-min Rain = 0
KCL1 260259Z 17012KT 19/16 A2994 RMK A01 T01910164  RH  085%=      5-min Rain = 0
KCL1 260300Z 17011KT 19/17 A2994 RMK A01 T01940165  RH  083%=      5-min Rain = 0
KCL1 260301Z 17013KT 20/17 A2994 RMK A01 T01960167  RH  083%=      5-min Rain = 0
KCL1 260302Z 16012KT 20/17 A2994 RMK A01 T01990168  RH  082%=      5-min Rain = 0
KCL1 260303Z 17012KT 20/17 A2994 RMK A01 T02010170  RH  082%=      5-min Rain = 0
KCL1 260304Z 17009KT 20/17 A2994 RMK A01 T02010170  RH  082%=      5-min Rain = 0
KCL1 260305Z 17009KT 20/17 A2994 RMK A01 T02010169  RH  082%=      5-min Rain = 0
KCL1 260306Z 17008KT 20/17 A2994 RMK A01 T01990170  RH  083%=      5-min Rain = 0
KCL1 260307Z 16009KT 20/17 A2994 RMK A01 T01980171  RH  084%=      5-min Rain = 0
KCL1 260308Z 17010KT 20/17 A2994 RMK A01 T01980171  RH  085%=      5-min Rain = 0
KCL1 260309Z 16009KT 20/17 A2994 RMK A01 T01990171  RH  084%=      5-min Rain = 0
KCL1 260310Z 17008KT 20/17 A2994 RMK A01 T01990170  RH  084%=      5-min Rain = 0
KCL1 260311Z 16011KT 20/17 A2994 RMK A01 T01990172  RH  084%=      5-min Rain = 0
KCL1 260312Z 16009G14KT 20/17 A2994 RMK A01 T01990172  RH  084%=      5-min Rain = 0
KCL1 260313Z 16010KT 20/17 A2994 RMK A01 T01990172  RH  084%=      5-min Rain = 0
KCL1 260314Z 16009KT 20/17 A2994 RMK A01 T01990171  RH  084%=      5-min Rain = 0
KCL1 260315Z 17009G14KT 20/17 A2994 RMK A01 T01990173  RH  085%=      5-min Rain = 0
KCL1 260316Z 17008KT 20/17 A2994 RMK A01 T01980173  RH  085%=      5-min Rain = 0
KCL1 260317Z 17007KT 20/17 A2994 RMK A01 T01980173  RH  085%=      5-min Rain = 0
KCL1 260318Z 16007KT 20/17 A2994 RMK A01 T01980173  RH  085%=      5-min Rain = 0
KCL1 260319Z 16009KT 20/17 A2994 RMK A01 T01980173  RH  086%=      5-min Rain = 0
KCL1 260320Z 16008KT 20/17 A2994 RMK A01 T01980173  RH  086%=      5-min Rain = 0
KCL1 260321Z 15007KT 20/17 A2994 RMK A01 T01980173  RH  086%=      5-min Rain = 0
KCL1 260322Z 15010KT 20/18 A2994 RMK A01 T01980177  RH  087%=      5-min Rain = 0
KCL1 260323Z 16012KT 20/18 A2995 RMK A01 T01990177  RH  087%=      5-min Rain = 0
KCL1 260324Z 16010KT 20/18 A2995 RMK A01 T02000177  RH  087%=      5-min Rain = 0
KCL1 260325Z 16009KT 20/18 A2995 RMK A01 T02010177  RH  086%=      5-min Rain = 0
KCL1 260326Z 16009KT 20/18 A2995 RMK A01 T02010178  RH  087%=      5-min Rain = 0
KCL1 260327Z 16008KT 20/18 A2995 RMK A01 T02010178  RH  087%=      5-min Rain = 0
KCL1 260328Z 16008KT 20/18 A2995 RMK A01 T02000178  RH  087%=      5-min Rain = 0
KCL1 260329Z 16009KT 20/18 A2995 RMK A01 T02000178  RH  087%=      5-min Rain = 0
KCL1 260330Z 16011KT 20/18 A2995 RMK A01 T02000180  RH  088%=      5-min Rain = 0
KCL1 260331Z 17008KT 20/18 A2995 RMK A01 T02000181  RH  089%=      5-min Rain = 0
KCL1 260332Z 17008KT 20/18 A2995 RMK A01 T02000180  RH  088%=      5-min Rain = 0
KCL1 260333Z 17008KT 20/18 A2996 RMK A01 T02000181  RH  089%=      5-min Rain = 0
KCL1 260334Z 16010KT 20/18 A2995 RMK A01 T02000182  RH  089%=      5-min Rain = 0
KCL1 260335Z 16009KT 20/18 A2996 RMK A01 T02010182  RH  089%=      5-min Rain = 0
KCL1 260336Z 16010KT 20/18 A2996 RMK A01 T02010182  RH  089%=      5-min Rain = 0
KCL1 260337Z 16009KT 20/18 A2996 RMK A01 T02010182  RH  089%=      5-min Rain = 0
KCL1 260338Z 16010KT 20/18 A2996 RMK A01 T02010182  RH  089%=      5-min Rain = 0
KCL1 260339Z 17011KT 20/18 A2996 RMK A01 T02010183  RH  089%=      5-min Rain = 0
KCL1 260340Z 16011KT 20/18 A2996 RMK A01 T02020183  RH  089%=      5-min Rain = 0
KCL1 260341Z 17010KT 20/18 A2996 RMK A01 T02020183  RH  089%=      5-min Rain = 0
KCL1 260342Z 16010KT 20/18 A2996 RMK A01 T02020183  RH  088%=      5-min Rain = 0
KCL1 260343Z 16011KT 20/18 A2996 RMK A01 T02020183  RH  089%=      5-min Rain = 0
KCL1 260344Z 16009KT 20/18 A2996 RMK A01 T02030183  RH  089%=      5-min Rain = 0
KCL1 260345Z 16011KT 20/18 A2996 RMK A01 T02030184  RH  089%=      5-min Rain = 0
KCL1 260346Z 15010KT 20/18 A2996 RMK A01 T02030184  RH  089%=      5-min Rain = 0
KCL1 260347Z 16008KT 20/18 A2996 RMK A01 T02030184  RH  089%=      5-min Rain = 0
KCL1 260348Z 16009KT 20/18 A2996 RMK A01 T02020184  RH  089%=      5-min Rain = 0
KCL1 260349Z 16007KT 20/18 A2996 RMK A01 T02010184  RH  090%=      5-min Rain = 0
KCL1 260350Z 15010KT 20/18 A2996 RMK A01 T02010184  RH  090%=      5-min Rain = 0
KCL1 260351Z 16008KT 20/19 A2996 RMK A01 T02010185  RH  091%=      5-min Rain = 0
KCL1 260352Z 16010KT 20/19 A2996 RMK A01 T02010185  RH  091%=      5-min Rain = 0
KCL1 260353Z 16008KT 20/19 A2996 RMK A01 T02020185  RH  090%=      5-min Rain = 0
KCL1 260354Z 16009KT 20/19 A2996 RMK A01 T02010185  RH  090%=      5-min Rain = 0
KCL1 260355Z 16009KT 20/19 A2997 RMK A01 T02020185  RH  090%=      5-min Rain = 0
KCL1 260356Z 16010KT 20/19 A2997 RMK A01 T02020185  RH  090%=      5-min Rain = 0
KCL1 260357Z 16009KT 20/19 A2997 RMK A01 T02020185  RH  090%=      5-min Rain = 0
KCL1 260358Z 16009KT 20/19 A2997 RMK A01 T02020185  RH  090%=      5-min Rain = 0
KCL1 260359Z 16009KT 20/19 A2997 RMK A01 T02030185  RH  090%=      5-min Rain = 0
KCL1 260400Z 16010KT 20/19 A2997 RMK A01 T02020186  RH  090%=      5-min Rain = 0
KCL1 260401Z 15010KT 20/19 A2997 RMK A01 T02020186  RH  090%=      5-min Rain = 0
KCL1 260402Z 16008KT 20/19 A2997 RMK A01 T02030186  RH  090%=      5-min Rain = 0
KCL1 260403Z 15011KT 20/19 A2997 RMK A01 T02030187  RH  090%=      5-min Rain = 0
KCL1 260404Z 16008KT 20/19 A2997 RMK A01 T02030187  RH  091%=      5-min Rain = 0
KCL1 260405Z 16009KT 20/19 A2997 RMK A01 T02030187  RH  091%=      5-min Rain = 0
KCL1 260406Z 16007KT 20/19 A2997 RMK A01 T02020187  RH  091%=      5-min Rain = 0
KCL1 260407Z 16010KT 20/19 A2997 RMK A01 T02020187  RH  091%=      5-min Rain = 0
KCL1 260408Z 16013KT 20/19 A2997 RMK A01 T02020187  RH  091%=      5-min Rain = 0
KCL1 260409Z 16011KT 20/19 A2997 RMK A01 T02020187  RH  091%=      5-min Rain = 0
KCL1 260410Z 15011KT 20/19 A2997 RMK A01 T02040187  RH  090%=      5-min Rain = 0
KCL1 260411Z 15012KT 20/19 A2997 RMK A01 T02040188  RH  090%=      5-min Rain = 0
KCL1 260412Z 14010KT 20/19 A2997 RMK A01 T02040187  RH  090%=      5-min Rain = 0
KCL1 260413Z 15008KT 21/19 A2997 RMK A01 T02050187  RH  090%=      5-min Rain = 0
KCL1 260414Z 16009G15KT 20/19 A2997 RMK A01 T02040188  RH  090%=      5-min Rain = 0
KCL1 260415Z 17014G19KT 20/19 A2996 RMK A01 T02040188  RH  091%=      5-min Rain = 0
KCL1 260416Z 14010KT 21/19 A2997 RMK A01 T02050187  RH  089%=      5-min Rain = 0
KCL1 260417Z 15010KT 21/19 A2997 RMK A01 T02060187  RH  089%=      5-min Rain = 0
KCL1 260418Z 15010KT 21/19 A2997 RMK A01 T02050186  RH  089%=      5-min Rain = 0
KCL1 260419Z 14008KT 20/19 A2997 RMK A01 T02040186  RH  090%=      5-min Rain = 0
KCL1 260420Z 15009KT 20/19 A2997 RMK A01 T02030186  RH  090%=      5-min Rain = 0
KCL1 260421Z 15011G16KT 20/19 A2997 RMK A01 T02020186  RH  091%=      5-min Rain = 0
KCL1 260422Z 16010KT 20/19 A2997 RMK A01 T02020187  RH  091%=      5-min Rain = 0
KCL1 260423Z 15010KT 20/19 A2997 RMK A01 T02020187  RH  091%=      5-min Rain = 0
KCL1 260424Z 15012KT 20/19 A2997 RMK A01 T02020187  RH  091%=      5-min Rain = 0
KCL1 260425Z 16011KT 20/19 A2997 RMK A01 T02020187  RH  091%=      5-min Rain = 0
KCL1 260426Z 15011KT 20/19 A2997 RMK A01 T02020187  RH  091%=      5-min Rain = 0
KCL1 260427Z 15009KT 20/19 A2997 RMK A01 T02030187  RH  091%=      5-min Rain = 0
KCL1 260428Z 15009KT 20/19 A2997 RMK A01 T02020187  RH  091%=      5-min Rain = 0
KCL1 260429Z 15012KT 20/19 A2997 RMK A01 T02020187  RH  091%=      5-min Rain = 0
KCL1 260430Z 15009KT 20/19 A2997 RMK A01 T02020187  RH  091%=      5-min Rain = 0
KCL1 260431Z 16008KT 20/19 A2997 RMK A01 T02020187  RH  091%=      5-min Rain = 0
KCL1 260432Z 16012KT 20/19 A2997 RMK A01 T02020187  RH  091%=      5-min Rain = 0
KCL1 260433Z 16010KT 20/19 A2997 RMK A01 T02030188  RH  091%=      5-min Rain = 0
KCL1 260434Z 16010G15KT 20/19 A2997 RMK A01 T02020188  RH  091%=      5-min Rain = 0
KCL1 260435Z 16011KT 20/19 A2997 RMK A01 T02030188  RH  091%=      5-min Rain = 0
KCL1 260436Z 15011KT 20/19 A2997 RMK A01 T02030187  RH  090%=      5-min Rain = 0
KCL1 260437Z 15010KT 20/19 A2997 RMK A01 T02040187  RH  090%=      5-min Rain = 0
KCL1 260438Z 15009KT 20/19 A2997 RMK A01 T02040187  RH  090%=      5-min Rain = 0
KCL1 260439Z 15009KT 20/19 A2997 RMK A01 T02030187  RH  090%=      5-min Rain = 0
KCL1 260440Z 16010KT 20/19 A2997 RMK A01 T02020187  RH  091%=      5-min Rain = 0
KCL1 260441Z 16009KT 20/19 A2997 RMK A01 T02010187  RH  092%=      5-min Rain = 0
KCL1 260442Z 16010G15KT 20/19 A2997 RMK A01 T02020188  RH  092%=      5-min Rain = 0
KCL1 260443Z 16012KT 20/19 A2997 RMK A01 T02020188  RH  092%=      5-min Rain = 0
KCL1 260444Z 16011KT 20/19 A2997 RMK A01 T02030188  RH  091%=      5-min Rain = 0
KCL1 260445Z 15008KT 20/19 A2997 RMK A01 T02030187  RH  091%=      5-min Rain = 0
KCL1 260446Z 15009KT 20/19 A2997 RMK A01 T02030188  RH  091%=      5-min Rain = 0
KCL1 260447Z 15008KT 20/19 A2997 RMK A01 T02030188  RH  091%=      5-min Rain = 0
KCL1 260448Z 15008KT 20/19 A2997 RMK A01 T02020188  RH  092%=      5-min Rain = 0
KCL1 260449Z 15011KT 20/19 A2997 RMK A01 T02020189  RH  092%=      5-min Rain = 0
KCL1 260450Z 15010KT 20/19 A2998 RMK A01 T02020189  RH  092%=      5-min Rain = 0
KCL1 260451Z 15009KT 20/19 A2998 RMK A01 T02030189  RH  092%=      5-min Rain = 0
KCL1 260452Z 15009KT 20/19 A2998 RMK A01 T02030190  RH  092%=      5-min Rain = 0
KCL1 260453Z 15007KT 20/19 A2997 RMK A01 T02030189  RH  092%=      5-min Rain = 0
KCL1 260454Z 16009KT 20/19 A2997 RMK A01 T02030190  RH  092%=      5-min Rain = 0
KCL1 260455Z 16009KT 20/19 A2997 RMK A01 T02030190  RH  092%=      5-min Rain = 0
KCL1 260456Z 16011KT 20/19 A2997 RMK A01 T02030190  RH  092%=      5-min Rain = 0
KCL1 260457Z 16009KT 20/19 A2997 RMK A01 T02040190  RH  092%=      5-min Rain = 0
KCL1 260458Z 16007KT 21/19 A2997 RMK A01 T02050190  RH  091%=      5-min Rain = 0
KCL1 260459Z 15007KT 21/19 A2997 RMK A01 T02050190  RH  091%=      5-min Rain = 0

Page generated in 0.0373 seconds.